Wetterdaten: Donnerstag, 01.01.2009
Datum Zeit Temp. Innen Temp. Aussen Feuchte Inne Feuchte Auss Luftdruck Regen ab 0,1 Wind
01.01.2009 00:00 15,7 C -4,8 C 36 % 85 % 1027,7 hPa 0,2 l/m 0,0 km/h (0 Bft)
01.01.2009 00:02 15,7 C -4,8 C 36 % 85 % 1027,7 hPa 0,0 l/m 0,0 km/h (0 Bft)
01.01.2009 00:04 15,7 C -4,9 C 36 % 85 % 1027,7 hPa 0,0 l/m 0,0 km/h (0 Bft)
01.01.2009 00:06 15,7 C -4,9 C 36 % 85 % 1027,7 hPa 0,0 l/m 0,0 km/h (0 Bft)
01.01.2009 00:08 15,7 C -4,9 C 36 % 85 % 1027,7 hPa 0,0 l/m 0,0 km/h (0 Bft)
01.01.2009 00:10 15,7 C -4,9 C 36 % 85 % 1027,7 hPa 0,0 l/m 0,0 km/h (0 Bft)
01.01.2009 00:12 15,7 C -4,9 C 37 % 85 % 1027,7 hPa 0,0 l/m 0,0 km/h (0 Bft)
01.01.2009 00:14 15,7 C -5,0 C 37 % 85 % 1027,7 hPa 0,0 l/m 0,0 km/h (0 Bft)
01.01.2009 00:16 15,8 C -5,0 C 37 % 85 % 1027,7 hPa 0,0 l/m 0,0 km/h (0 Bft)
01.01.2009 00:18 15,8 C -5,0 C 37 % 85 % 1027,7 hPa 0,0 l/m 0,0 km/h (0 Bft)
01.01.2009 00:20 15,8 C -5,1 C 37 % 85 % 1027,7 hPa 0,0 l/m 5,4 km/h (1 Bft)
01.01.2009 00:22 15,8 C -5,1 C 37 % 85 % 1027,7 hPa 0,0 l/m 0,0 km/h (0 Bft)
01.01.2009 00:24 15,9 C -5,1 C 37 % 85 % 1026,7 hPa 0,0 l/m 4,3 km/h (1 Bft)
01.01.2009 00:26 15,9 C -5,1 C 37 % 85 % 1027,7 hPa 0,0 l/m 0,0 km/h (0 Bft)
01.01.2009 00:28 15,9 C -5,1 C 37 % 85 % 1027,7 hPa 0,0 l/m 0,0 km/h (0 Bft)
01.01.2009 00:30 16,0 C -5,1 C 37 % 85 % 1026,7 hPa 0,0 l/m 0,0 km/h (0 Bft)
01.01.2009 00:32 16,0 C -5,1 C 37 % 85 % 1027,7 hPa 0,0 l/m 0,0 km/h (0 Bft)
01.01.2009 00:34 16,0 C -5,1 C 37 % 86 % 1027,7 hPa 0,0 l/m 0,0 km/h (0 Bft)
01.01.2009 00:36 16,0 C -5,1 C 37 % 86 % 1027,7 hPa 0,0 l/m 0,0 km/h (0 Bft)
01.01.2009 00:38 16,0 C -5,1 C 37 % 86 % 1027,7 hPa 0,0 l/m 0,0 km/h (0 Bft)
01.01.2009 00:40 16,0 C -5,1 C 37 % 86 % 1027,7 hPa 0,0 l/m 3,8 km/h (1 Bft)
01.01.2009 00:42 16,1 C -5,1 C 37 % 86 % 1027,7 hPa 0,0 l/m 0,0 km/h (0 Bft)
01.01.2009 00:44 16,1 C -5,1 C 37 % 86 % 1027,7 hPa 0,0 l/m 0,0 km/h (0 Bft)
01.01.2009 00:46 16,1 C -5,2 C 37 % 86 % 1027,7 hPa 0,0 l/m 0,0 km/h (0 Bft)
01.01.2009 00:48 16,1 C -5,2 C 37 % 86 % 1027,7 hPa 0,0 l/m 0,0 km/h (0 Bft)
01.01.2009 00:50 16,2 C -5,2 C 37 % 86 % 1027,7 hPa 0,0 l/m 0,0 km/h (0 Bft)
01.01.2009 00:52 16,2 C -5,2 C 37 % 86 % 1026,7 hPa 0,0 l/m 0,0 km/h (0 Bft)
01.01.2009 00:54 16,2 C -5,2 C 37 % 86 % 1027,7 hPa 0,0 l/m 0,0 km/h (0 Bft)
01.01.2009 00:56 16,2 C -5,2 C 36 % 86 % 1026,7 hPa 0,0 l/m 0,0 km/h (0 Bft)
01.01.2009 00:58 16,2 C -5,2 C 36 % 86 % 1027,7 hPa 0,0 l/m 0,0 km/h (0 Bft)
01.01.2009 01:00 16,2 C -5,2 C 36 % 86 % 1027,7 hPa 0,0 l/m 0,0 km/h (0 Bft)
01.01.2009 01:02 16,2 C -5,2 C 36 % 86 % 1027,7 hPa 0,0 l/m 1,6 km/h (1 Bft)
01.01.2009 01:04 16,2 C -5,2 C 36 % 86 % 1027,7 hPa 0,0 l/m 0,0 km/h (0 Bft)
01.01.2009 01:06 16,2 C -5,2 C 36 % 86 % 1027,7 hPa 0,0 l/m 0,0 km/h (0 Bft)
01.01.2009 01:08 16,2 C -5,2 C 36 % 86 % 1027,7 hPa 0,0 l/m 0,0 km/h (0 Bft)
01.01.2009 01:10 16,3 C -5,2 C 36 % 86 % 1027,7 hPa 0,0 l/m 0,0 km/h (0 Bft)
01.01.2009 01:12 16,2 C -5,2 C 37 % 86 % 1027,7 hPa 0,0 l/m 0,0 km/h (0 Bft)
01.01.2009 01:14 16,3 C -5,2 C 36 % 86 % 1027,7 hPa 0,0 l/m 0,0 km/h (0 Bft)
01.01.2009 01:16 16,3 C -5,2 C 36 % 86 % 1027,7 hPa 0,0 l/m 0,0 km/h (0 Bft)
01.01.2009 01:18 16,3 C -5,1 C 36 % 86 % 1027,7 hPa 0,0 l/m 0,0 km/h (0 Bft)
01.01.2009 01:20 16,3 C -5,1 C 36 % 86 % 1027,7 hPa 0,0 l/m 0,0 km/h (0 Bft)
01.01.2009 01:22 16,3 C -5,1 C 36 % 86 % 1027,7 hPa 0,0 l/m 0,0 km/h (0 Bft)
01.01.2009 01:24 16,3 C -5,1 C 36 % 86 % 1027,7 hPa 0,0 l/m 0,0 km/h (0 Bft)
01.01.2009 01:26 16,3 C -5,1 C 36 % 86 % 1027,7 hPa 0,0 l/m 7,5 km/h (2 Bft)
01.01.2009 01:28 16,3 C -5,1 C 36 % 86 % 1027,7 hPa 0,0 l/m 7,5 km/h (2 Bft)
01.01.2009 01:30 16,3 C -5,1 C 36 % 86 % 1027,7 hPa 0,0 l/m 0,0 km/h (0 Bft)
01.01.2009 01:32 16,3 C -5,1 C 36 % 86 % 1027,7 hPa 0,0 l/m 0,0 km/h (0 Bft)
01.01.2009 01:34 16,3 C -5,1 C 36 % 87 % 1027,7 hPa 0,0 l/m 0,0 km/h (0 Bft)
01.01.2009 01:36 16,3 C -5,1 C 36 % 87 % 1027,7 hPa 0,0 l/m 0,0 km/h (0 Bft)
01.01.2009 01:38 16,3 C -5,1 C 36 % 87 % 1027,7 hPa 0,0 l/m 0,0 km/h (0 Bft)
01.01.2009 01:40 16,2 C -5,1 C 36 % 87 % 1027,7 hPa 0,0 l/m 0,0 km/h (0 Bft)
01.01.2009 01:42 16,2 C -5,1 C 36 % 87 % 1027,7 hPa 0,0 l/m 0,0 km/h (0 Bft)
01.01.2009 01:44 16,2 C -5,1 C 36 % 87 % 1027,7 hPa 0,0 l/m 0,0 km/h (0 Bft)
01.01.2009 01:46 16,2 C -5,1 C 36 % 87 % 1027,7 hPa 0,0 l/m 0,0 km/h (0 Bft)
01.01.2009 01:48 16,2 C -5,2 C 36 % 86 % 1027,7 hPa 0,0 l/m 0,0 km/h (0 Bft)
01.01.2009 01:50 16,2 C -5,2 C 36 % 86 % 1027,7 hPa 0,0 l/m 0,0 km/h (0 Bft)
01.01.2009 01:52 16,1 C -5,2 C 36 % 86 % 1027,7 hPa 0,0 l/m 0,0 km/h (0 Bft)
01.01.2009 01:54 16,1 C -5,2 C 36 % 86 % 1027,7 hPa 0,0 l/m 0,0 km/h (0 Bft)
01.01.2009 01:56 16,1 C -5,2 C 36 % 86 % 1027,7 hPa 0,0 l/m 0,0 km/h (0 Bft)
01.01.2009 01:58 16,0 C -5,3 C 36 % 86 % 1027,7 hPa 0,0 l/m 0,0 km/h (0 Bft)
01.01.2009 02:00 16,0 C -5,3 C 36 % 86 % 1027,7 hPa 0,0 l/m 0,0 km/h (0 Bft)
01.01.2009 02:02 16,0 C -5,3 C 36 % 86 % 1027,7 hPa 0,0 l/m 0,0 km/h (0 Bft)
01.01.2009 02:04 16,0 C -5,3 C 36 % 86 % 1027,7 hPa 0,0 l/m 0,0 km/h (0 Bft)
01.01.2009 02:06 16,0 C -5,4 C 36 % 86 % 1027,7 hPa 0,0 l/m 0,0 km/h (0 Bft)
01.01.2009 02:08 16,0 C -5,4 C 36 % 86 % 1027,7 hPa 0,0 l/m 0,0 km/h (0 Bft)
01.01.2009 02:10 16,0 C -5,4 C 36 % 86 % 1027,7 hPa 0,0 l/m 0,0 km/h (0 Bft)
01.01.2009 02:12 15,9 C -5,4 C 36 % 86 % 1027,7 hPa 0,0 l/m 0,0 km/h (0 Bft)
01.01.2009 02:14 15,9 C -5,5 C 36 % 86 % 1027,7 hPa 0,0 l/m 0,0 km/h (0 Bft)
01.01.2009 02:16 15,9 C -5,5 C 36 % 86 % 1027,7 hPa 0,0 l/m 0,0 km/h (0 Bft)
01.01.2009 02:18 15,9 C -5,5 C 36 % 86 % 1027,7 hPa 0,0 l/m 0,0 km/h (0 Bft)
01.01.2009 02:20 15,8 C -5,5 C 36 % 86 % 1027,7 hPa 0,0 l/m 0,0 km/h (0 Bft)
01.01.2009 02:22 15,8 C -5,6 C 36 % 86 % 1027,7 hPa 0,0 l/m 0,0 km/h (0 Bft)
01.01.2009 02:24 15,8 C -5,6 C 36 % 86 % 1027,7 hPa 0,0 l/m 0,0 km/h (0 Bft)
01.01.2009 02:26 15,8 C -5,6 C 36 % 86 % 1028,7 hPa 0,0 l/m 0,0 km/h (0 Bft)
01.01.2009 02:28 15,8 C -5,6 C 36 % 86 % 1028,7 hPa 0,0 l/m 0,0 km/h (0 Bft)
01.01.2009 02:30 15,8 C -5,6 C 36 % 86 % 1028,7 hPa 0,0 l/m 0,0 km/h (0 Bft)
01.01.2009 02:32 15,8 C -5,6 C 36 % 86 % 1028,7 hPa 0,0 l/m 0,0 km/h (0 Bft)
01.01.2009 02:34 15,8 C -5,6 C 36 % 86 % 1028,7 hPa 0,0 l/m 0,0 km/h (0 Bft)
01.01.2009 02:36 15,7 C -5,6 C 36 % 86 % 1028,7 hPa 0,0 l/m 0,0 km/h (0 Bft)
01.01.2009 02:38 15,7 C -5,6 C 36 % 86 % 1028,7 hPa 0,0 l/m 0,0 km/h (0 Bft)
01.01.2009 02:40 15,7 C -5,6 C 36 % 86 % 1028,7 hPa 0,0 l/m 0,0 km/h (0 Bft)
01.01.2009 02:42 15,7 C -5,6 C 36 % 86 % 1028,7 hPa 0,0 l/m 0,0 km/h (0 Bft)
01.01.2009 02:44 15,7 C -5,6 C 36 % 86 % 1028,7 hPa 0,0 l/m 0,0 km/h (0 Bft)
01.01.2009 02:46 15,7 C -5,5 C 36 % 86 % 1028,7 hPa 0,0 l/m 0,0 km/h (0 Bft)
01.01.2009 02:48 15,6 C -5,6 C 36 % 86 % 1028,7 hPa 0,0 l/m 0,0 km/h (0 Bft)
01.01.2009 02:50 15,6 C -5,6 C 36 % 86 % 1028,7 hPa 0,0 l/m 0,0 km/h (0 Bft)
01.01.2009 02:52 15,6 C -5,6 C 36 % 86 % 1028,7 hPa 0,0 l/m 0,0 km/h (0 Bft)
01.01.2009 02:54 15,6 C -5,6 C 36 % 86 % 1028,7 hPa 0,0 l/m 0,0 km/h (0 Bft)
01.01.2009 02:56 15,6 C -5,6 C 36 % 87 % 1028,7 hPa 0,0 l/m 0,0 km/h (0 Bft)
01.01.2009 02:58 15,6 C -5,6 C 36 % 86 % 1028,7 hPa 0,0 l/m 0,0 km/h (0 Bft)
01.01.2009 03:00 15,6 C -5,6 C 36 % 86 % 1028,7 hPa 0,0 l/m 0,0 km/h (0 Bft)
01.01.2009 03:02 15,6 C -5,6 C 36 % 86 % 1028,7 hPa 0,0 l/m 0,0 km/h (0 Bft)
01.01.2009 03:04 15,6 C -5,6 C 36 % 86 % 1028,7 hPa 0,0 l/m 0,0 km/h (0 Bft)
01.01.2009 03:06 15,6 C -5,6 C 36 % 87 % 1028,7 hPa 0,0 l/m 0,0 km/h (0 Bft)
01.01.2009 03:08 15,6 C -5,6 C 36 % 87 % 1028,7 hPa 0,0 l/m 0,0 km/h (0 Bft)
01.01.2009 03:10 15,6 C -5,5 C 36 % 87 % 1028,7 hPa 0,0 l/m 0,0 km/h (0 Bft)
01.01.2009 03:12 15,6 C -5,5 C 36 % 87 % 1028,7 hPa 0,0 l/m 0,0 km/h (0 Bft)
01.01.2009 03:14 15,6 C -5,5 C 36 % 87 % 1028,7 hPa 0,0 l/m 0,0 km/h (0 Bft)
01.01.2009 03:16 15,6 C -5,5 C 36 % 87 % 1028,7 hPa 0,0 l/m 0,0 km/h (0 Bft)
01.01.2009 03:18 15,6 C -5,5 C 36 % 87 % 1028,7 hPa 0,0 l/m 0,0 km/h (0 Bft)
01.01.2009 03:20 15,6 C -5,5 C 36 % 87 % 1028,7 hPa 0,0 l/m 0,0 km/h (0 Bft)
01.01.2009 03:22 15,6 C -5,5 C 36 % 87 % 1028,7 hPa 0,0 l/m 0,0 km/h (0 Bft)
01.01.2009 03:24 15,5 C -5,4 C 36 % 87 % 1028,7 hPa 0,0 l/m 0,0 km/h (0 Bft)
01.01.2009 03:26 15,5 C -5,4 C 36 % 87 % 1028,7 hPa 0,0 l/m 0,0 km/h (0 Bft)
01.01.2009 03:28 15,5 C -5,4 C 36 % 87 % 1028,7 hPa 0,0 l/m 0,0 km/h (0 Bft)
01.01.2009 03:30 15,5 C -5,4 C 36 % 87 % 1028,7 hPa 0,0 l/m 0,0 km/h (0 Bft)
01.01.2009 03:32 15,5 C -5,4 C 36 % 87 % 1028,7 hPa 0,0 l/m 0,0 km/h (0 Bft)
01.01.2009 03:34 15,5 C -5,4 C 36 % 87 % 1028,7 hPa 0,0 l/m 0,0 km/h (0 Bft)
01.01.2009 03:36 15,5 C -5,3 C 36 % 87 % 1028,7 hPa 0,0 l/m 0,0 km/h (0 Bft)
01.01.2009 03:38 15,5 C -5,4 C 36 % 87 % 1028,7 hPa 0,0 l/m 0,0 km/h (0 Bft)
01.01.2009 03:40 15,4 C -5,3 C 36 % 87 % 1028,7 hPa 0,0 l/m 0,0 km/h (0 Bft)
01.01.2009 03:42 15,4 C -5,3 C 36 % 87 % 1028,7 hPa 0,0 l/m 0,0 km/h (0 Bft)
01.01.2009 03:44 15,4 C -5,3 C 36 % 87 % 1028,7 hPa 0,0 l/m 0,0 km/h (0 Bft)
01.01.2009 03:46 15,4 C -5,3 C 36 % 87 % 1028,7 hPa 0,0 l/m 0,0 km/h (0 Bft)
01.01.2009 03:48 15,4 C -5,3 C 36 % 87 % 1028,7 hPa 0,0 l/m 0,0 km/h (0 Bft)
01.01.2009 03:50 15,4 C -5,2 C 36 % 87 % 1028,7 hPa 0,0 l/m 0,0 km/h (0 Bft)
01.01.2009 03:52 15,4 C -5,2 C 36 % 87 % 1028,7 hPa 0,0 l/m 0,0 km/h (0 Bft)
01.01.2009 03:54 15,4 C -5,2 C 36 % 87 % 1028,7 hPa 0,0 l/m 0,0 km/h (0 Bft)
01.01.2009 03:56 15,4 C -5,2 C 36 % 87 % 1028,7 hPa 0,0 l/m 0,0 km/h (0 Bft)
01.01.2009 03:58 15,4 C -5,2 C 36 % 87 % 1028,7 hPa 0,0 l/m 0,0 km/h (0 Bft)
01.01.2009 04:00 15,4 C -5,2 C 36 % 87 % 1028,7 hPa 0,0 l/m 0,0 km/h (0 Bft)
01.01.2009 04:02 15,4 C -5,2 C 36 % 87 % 1028,7 hPa 0,0 l/m 0,0 km/h (0 Bft)
01.01.2009 04:04 15,4 C -5,2 C 36 % 87 % 1028,7 hPa 0,0 l/m 0,0 km/h (0 Bft)
01.01.2009 04:06 15,4 C -5,2 C 36 % 87 % 1028,7 hPa 0,0 l/m 0,0 km/h (0 Bft)
01.01.2009 04:08 15,4 C -5,1 C 36 % 87 % 1028,7 hPa 0,0 l/m 0,0 km/h (0 Bft)
01.01.2009 04:10 15,4 C -5,1 C 36 % 87 % 1028,7 hPa 0,0 l/m 0,0 km/h (0 Bft)
01.01.2009 04:12 15,4 C -5,1 C 36 % 87 % 1028,7 hPa 0,0 l/m 0,0 km/h (0 Bft)
01.01.2009 04:14 15,4 C -5,1 C 36 % 87 % 1028,7 hPa 0,0 l/m 0,0 km/h (0 Bft)
01.01.2009 04:16 15,3 C -5,1 C 36 % 87 % 1028,7 hPa 0,0 l/m 0,0 km/h (0 Bft)
01.01.2009 04:18 15,4 C -5,1 C 36 % 87 % 1028,7 hPa 0,0 l/m 0,0 km/h (0 Bft)
01.01.2009 04:20 15,4 C -5,1 C 36 % 87 % 1028,7 hPa 0,0 l/m 0,0 km/h (0 Bft)
01.01.2009 04:22 15,3 C -5,0 C 36 % 87 % 1028,7 hPa 0,0 l/m 0,0 km/h (0 Bft)
01.01.2009 04:24 15,3 C -5,0 C 36 % 87 % 1028,7 hPa 0,0 l/m 0,0 km/h (0 Bft)
01.01.2009 04:26 15,4 C -5,0 C 36 % 87 % 1028,7 hPa 0,0 l/m 0,0 km/h (0 Bft)
01.01.2009 04:28 15,3 C -4,9 C 36 % 87 % 1028,7 hPa 0,0 l/m 0,0 km/h (0 Bft)
01.01.2009 04:30 15,3 C -4,9 C 36 % 87 % 1028,7 hPa 0,0 l/m 0,0 km/h (0 Bft)
01.01.2009 04:32 15,3 C -4,9 C 36 % 87 % 1028,7 hPa 0,0 l/m 0,0 km/h (0 Bft)
01.01.2009 04:34 15,3 C -4,9 C 36 % 87 % 1028,7 hPa 0,0 l/m 0,0 km/h (0 Bft)
01.01.2009 04:36 15,3 C -4,9 C 36 % 87 % 1028,7 hPa 0,0 l/m 0,0 km/h (0 Bft)
01.01.2009 04:38 15,3 C -4,9 C 36 % 87 % 1028,7 hPa 0,0 l/m 0,0 km/h (0 Bft)
01.01.2009 04:40 15,3 C -4,9 C 36 % 87 % 1028,7 hPa 0,0 l/m 0,0 km/h (0 Bft)
01.01.2009 04:42 15,3 C -4,8 C 36 % 87 % 1028,7 hPa 0,0 l/m 0,0 km/h (0 Bft)
01.01.2009 04:44 15,3 C -4,8 C 36 % 87 % 1028,7 hPa 0,0 l/m 0,0 km/h (0 Bft)
01.01.2009 04:46 15,3 C -4,8 C 36 % 87 % 1028,7 hPa 0,0 l/m 0,0 km/h (0 Bft)
01.01.2009 04:48 15,3 C -4,8 C 36 % 87 % 1028,7 hPa 0,0 l/m 0,0 km/h (0 Bft)
01.01.2009 04:50 15,3 C -4,8 C 36 % 87 % 1028,7 hPa 0,0 l/m 0,0 km/h (0 Bft)
01.01.2009 04:52 15,3 C -4,7 C 36 % 87 % 1028,7 hPa 0,0 l/m 0,0 km/h (0 Bft)
01.01.2009 04:54 15,3 C -4,8 C 36 % 87 % 1028,7 hPa 0,0 l/m 0,0 km/h (0 Bft)
01.01.2009 04:56 15,3 C -4,7 C 36 % 87 % 1028,7 hPa 0,0 l/m 0,0 km/h (0 Bft)
01.01.2009 04:58 15,2 C -4,7 C 36 % 87 % 1028,7 hPa 0,0 l/m 0,0 km/h (0 Bft)
01.01.2009 05:00 15,3 C -4,7 C 36 % 87 % 1028,7 hPa 0,0 l/m 0,0 km/h (0 Bft)
01.01.2009 05:02 15,2 C -4,7 C 36 % 87 % 1028,7 hPa 0,0 l/m 0,0 km/h (0 Bft)
01.01.2009 05:04 15,2 C -4,7 C 36 % 87 % 1028,7 hPa 0,0 l/m 0,0 km/h (0 Bft)
01.01.2009 05:06 15,2 C -4,7 C 36 % 87 % 1028,7 hPa 0,0 l/m 0,0 km/h (0 Bft)
01.01.2009 05:08 15,2 C -4,7 C 36 % 87 % 1028,7 hPa 0,0 l/m 0,0 km/h (0 Bft)
01.01.2009 05:10 15,2 C -4,7 C 36 % 87 % 1028,7 hPa 0,0 l/m 0,0 km/h (0 Bft)
01.01.2009 05:12 15,2 C -4,7 C 36 % 87 % 1028,7 hPa 0,0 l/m 0,0 km/h (0 Bft)
01.01.2009 05:14 15,2 C -4,7 C 36 % 87 % 1028,7 hPa 0,0 l/m 0,0 km/h (0 Bft)
01.01.2009 05:16 15,2 C -4,7 C 36 % 87 % 1028,7 hPa 0,0 l/m 0,0 km/h (0 Bft)
01.01.2009 05:18 15,2 C -4,6 C 36 % 87 % 1028,7 hPa 0,0 l/m 0,0 km/h (0 Bft)
01.01.2009 05:20 15,2 C -4,6 C 36 % 87 % 1028,7 hPa 0,0 l/m 0,0 km/h (0 Bft)
01.01.2009 05:22 15,2 C -4,6 C 36 % 87 % 1028,7 hPa 0,0 l/m 0,0 km/h (0 Bft)
01.01.2009 05:24 15,2 C -4,6 C 36 % 87 % 1028,7 hPa 0,0 l/m 0,0 km/h (0 Bft)
01.01.2009 05:26 15,2 C -4,6 C 36 % 87 % 1028,7 hPa 0,0 l/m 0,0 km/h (0 Bft)
01.01.2009 05:28 15,2 C -4,6 C 36 % 87 % 1028,7 hPa 0,0 l/m 0,0 km/h (0 Bft)
01.01.2009 05:30 15,2 C -4,6 C 36 % 87 % 1028,7 hPa 0,0 l/m 0,0 km/h (0 Bft)
01.01.2009 05:32 15,2 C -4,6 C 36 % 87 % 1028,7 hPa 0,0 l/m 0,0 km/h (0 Bft)
01.01.2009 05:34 15,2 C -4,6 C 36 % 87 % 1028,7 hPa 0,0 l/m 0,0 km/h (0 Bft)
01.01.2009 05:36 15,2 C -4,5 C 36 % 87 % 1028,7 hPa 0,0 l/m 0,0 km/h (0 Bft)
01.01.2009 05:38 15,2 C -4,6 C 36 % 87 % 1028,7 hPa 0,0 l/m 0,0 km/h (0 Bft)
01.01.2009 05:40 15,2 C -4,5 C 36 % 87 % 1028,7 hPa 0,0 l/m 0,0 km/h (0 Bft)
01.01.2009 05:42 15,2 C -4,5 C 36 % 87 % 1028,7 hPa 0,0 l/m 0,0 km/h (0 Bft)
01.01.2009 05:44 15,2 C -4,5 C 36 % 87 % 1028,7 hPa 0,0 l/m 0,0 km/h (0 Bft)
01.01.2009 05:46 15,2 C -4,5 C 36 % 87 % 1028,7 hPa 0,0 l/m 0,0 km/h (0 Bft)
01.01.2009 05:48 15,2 C -4,5 C 36 % 87 % 1028,7 hPa 0,0 l/m 0,0 km/h (0 Bft)
01.01.2009 05:50 15,2 C -4,5 C 36 % 87 % 1028,7 hPa 0,0 l/m 0,0 km/h (0 Bft)
01.01.2009 05:52 15,2 C -4,5 C 36 % 87 % 1028,7 hPa 0,0 l/m 0,0 km/h (0 Bft)
01.01.2009 05:54 15,2 C -4,5 C 36 % 87 % 1028,7 hPa 0,0 l/m 0,0 km/h (0 Bft)
01.01.2009 05:56 15,2 C -4,4 C 36 % 87 % 1028,7 hPa 0,0 l/m 0,0 km/h (0 Bft)
01.01.2009 05:58 15,2 C -4,4 C 36 % 87 % 1028,7 hPa 0,0 l/m 0,0 km/h (0 Bft)
01.01.2009 06:00 15,2 C -4,4 C 36 % 87 % 1028,7 hPa 0,0 l/m 0,0 km/h (0 Bft)
01.01.2009 06:02 15,2 C -4,4 C 36 % 87 % 1028,7 hPa 0,0 l/m 0,0 km/h (0 Bft)
01.01.2009 06:04 15,2 C -4,4 C 36 % 87 % 1028,7 hPa 0,0 l/m 0,0 km/h (0 Bft)
01.01.2009 06:06 15,2 C -4,4 C 36 % 87 % 1028,7 hPa 0,0 l/m 0,0 km/h (0 Bft)
01.01.2009 06:08 15,2 C -4,4 C 36 % 87 % 1028,7 hPa 0,0 l/m 0,0 km/h (0 Bft)
01.01.2009 06:10 15,2 C -4,4 C 36 % 87 % 1028,7 hPa 0,0 l/m 0,0 km/h (0 Bft)
01.01.2009 06:12 15,2 C -4,4 C 36 % 87 % 1028,7 hPa 0,0 l/m 0,0 km/h (0 Bft)
01.01.2009 06:14 15,2 C -4,3 C 36 % 87 % 1028,7 hPa 0,0 l/m 0,0 km/h (0 Bft)
01.01.2009 06:16 15,2 C -4,3 C 36 % 87 % 1028,7 hPa 0,0 l/m 0,0 km/h (0 Bft)
01.01.2009 06:18 15,2 C -4,2 C 36 % 87 % 1028,7 hPa 0,0 l/m 0,0 km/h (0 Bft)
01.01.2009 06:20 15,2 C -4,2 C 36 % 87 % 1028,7 hPa 0,0 l/m 0,0 km/h (0 Bft)
01.01.2009 06:22 15,2 C -4,2 C 36 % 87 % 1028,7 hPa 0,0 l/m 0,0 km/h (0 Bft)
01.01.2009 06:24 15,2 C -4,2 C 36 % 87 % 1028,7 hPa 0,0 l/m 0,0 km/h (0 Bft)
01.01.2009 06:26 15,2 C -4,2 C 36 % 87 % 1028,7 hPa 0,0 l/m 0,0 km/h (0 Bft)
01.01.2009 06:28 15,2 C -4,2 C 36 % 87 % 1028,7 hPa 0,0 l/m 0,0 km/h (0 Bft)
01.01.2009 06:30 15,1 C -4,2 C 36 % 87 % 1028,7 hPa 0,0 l/m 0,0 km/h (0 Bft)
01.01.2009 06:32 15,2 C -4,2 C 36 % 87 % 1028,7 hPa 0,0 l/m 0,0 km/h (0 Bft)
01.01.2009 06:34 15,2 C -4,2 C 36 % 87 % 1028,7 hPa 0,0 l/m 0,0 km/h (0 Bft)
01.01.2009 06:36 15,2 C -4,2 C 36 % 87 % 1028,7 hPa 0,0 l/m 0,0 km/h (0 Bft)
01.01.2009 06:38 15,1 C -4,2 C 36 % 87 % 1028,7 hPa 0,0 l/m 0,0 km/h (0 Bft)
01.01.2009 06:40 15,1 C -4,2 C 36 % 87 % 1028,7 hPa 0,0 l/m 0,0 km/h (0 Bft)
01.01.2009 06:42 15,1 C -4,2 C 36 % 87 % 1028,7 hPa 0,0 l/m 0,0 km/h (0 Bft)
01.01.2009 06:44 15,1 C -4,2 C 36 % 87 % 1028,7 hPa 0,0 l/m 0,0 km/h (0 Bft)
01.01.2009 06:46 15,1 C -4,1 C 36 % 87 % 1028,7 hPa 0,0 l/m 0,0 km/h (0 Bft)
01.01.2009 06:48 15,2 C -4,1 C 36 % 87 % 1028,7 hPa 0,0 l/m 0,0 km/h (0 Bft)
01.01.2009 06:50 15,1 C -4,1 C 36 % 87 % 1028,7 hPa 0,0 l/m 0,0 km/h (0 Bft)
01.01.2009 06:52 15,1 C -4,1 C 36 % 87 % 1028,7 hPa 0,0 l/m 0,0 km/h (0 Bft)
01.01.2009 06:54 15,1 C -4,1 C 36 % 87 % 1028,7 hPa 0,0 l/m 0,0 km/h (0 Bft)
01.01.2009 06:56 15,1 C -4,1 C 36 % 87 % 1028,7 hPa 0,0 l/m 0,0 km/h (0 Bft)
01.01.2009 06:58 15,1 C -4,1 C 36 % 87 % 1028,7 hPa 0,0 l/m 0,0 km/h (0 Bft)
01.01.2009 07:00 15,1 C -4,1 C 36 % 87 % 1028,7 hPa 0,0 l/m 0,0 km/h (0 Bft)
01.01.2009 07:02 15,1 C -4,1 C 36 % 87 % 1028,7 hPa 0,0 l/m 0,0 km/h (0 Bft)
01.01.2009 07:04 15,1 C -4,1 C 36 % 87 % 1028,7 hPa 0,0 l/m 0,0 km/h (0 Bft)
01.01.2009 07:06 15,1 C -4,1 C 36 % 87 % 1028,7 hPa 0,0 l/m 0,0 km/h (0 Bft)
01.01.2009 07:08 15,1 C -4,1 C 36 % 87 % 1029,7 hPa 0,0 l/m 0,0 km/h (0 Bft)
01.01.2009 07:10 15,1 C -4,1 C 36 % 87 % 1029,7 hPa 0,0 l/m 0,0 km/h (0 Bft)
01.01.2009 07:12 15,1 C -4,1 C 36 % 87 % 1028,7 hPa 0,0 l/m 0,0 km/h (0 Bft)
01.01.2009 07:14 15,1 C -4,1 C 36 % 87 % 1029,7 hPa 0,0 l/m 0,0 km/h (0 Bft)
01.01.2009 07:16 15,1 C -4,1 C 36 % 87 % 1029,7 hPa 0,0 l/m 0,0 km/h (0 Bft)
01.01.2009 07:18 15,1 C -4,1 C 36 % 87 % 1029,7 hPa 0,0 l/m 0,0 km/h (0 Bft)
01.01.2009 07:20 15,2 C -4,1 C 36 % 87 % 1029,7 hPa 0,0 l/m 0,0 km/h (0 Bft)
01.01.2009 07:22 15,1 C -4,1 C 36 % 87 % 1029,7 hPa 0,0 l/m 0,0 km/h (0 Bft)
01.01.2009 07:24 15,1 C -4,1 C 36 % 87 % 1029,7 hPa 0,0 l/m 0,0 km/h (0 Bft)
01.01.2009 07:26 15,1 C -4,1 C 36 % 87 % 1029,7 hPa 0,0 l/m 0,0 km/h (0 Bft)
01.01.2009 07:28 15,1 C -4,1 C 36 % 87 % 1029,7 hPa 0,0 l/m 0,0 km/h (0 Bft)
01.01.2009 07:30 15,1 C -3,9 C 36 % 87 % 1029,7 hPa 0,0 l/m 0,0 km/h (0 Bft)
01.01.2009 07:32 15,1 C -3,9 C 36 % 87 % 1029,7 hPa 0,0 l/m 0,0 km/h (0 Bft)
01.01.2009 07:34 15,1 C -4,0 C 36 % 87 % 1029,7 hPa 0,0 l/m 0,0 km/h (0 Bft)
01.01.2009 07:36 15,1 C -4,0 C 36 % 87 % 1029,7 hPa 0,0 l/m 0,0 km/h (0 Bft)
01.01.2009 07:38 15,1 C -3,9 C 36 % 87 % 1029,7 hPa 0,0 l/m 0,0 km/h (0 Bft)
01.01.2009 07:40 15,1 C -3,9 C 36 % 87 % 1029,7 hPa 0,0 l/m 0,0 km/h (0 Bft)
01.01.2009 07:42 15,1 C -3,9 C 36 % 87 % 1029,7 hPa 0,0 l/m 0,0 km/h (0 Bft)
01.01.2009 07:44 15,1 C -3,9 C 36 % 87 % 1029,7 hPa 0,0 l/m 0,0 km/h (0 Bft)
01.01.2009 07:46 15,1 C -3,9 C 36 % 87 % 1029,7 hPa 0,0 l/m 0,0 km/h (0 Bft)
01.01.2009 07:48 15,1 C -3,9 C 36 % 87 % 1029,7 hPa 0,0 l/m 0,0 km/h (0 Bft)
01.01.2009 07:50 15,1 C -3,9 C 36 % 87 % 1029,7 hPa 0,0 l/m 0,0 km/h (0 Bft)
01.01.2009 07:52 15,1 C -3,9 C 36 % 87 % 1029,7 hPa 0,0 l/m 0,0 km/h (0 Bft)
01.01.2009 07:54 15,1 C -3,9 C 36 % 87 % 1029,7 hPa 0,0 l/m 0,0 km/h (0 Bft)
01.01.2009 07:56 15,1 C -3,9 C 36 % 87 % 1029,7 hPa 0,0 l/m 0,0 km/h (0 Bft)
01.01.2009 07:58 15,1 C -3,9 C 36 % 87 % 1029,7 hPa 0,0 l/m 0,0 km/h (0 Bft)
01.01.2009 08:00 15,1 C -3,9 C 36 % 87 % 1029,7 hPa 0,0 l/m 0,0 km/h (0 Bft)
01.01.2009 08:02 15,1 C -3,9 C 36 % 87 % 1029,7 hPa 0,0 l/m 0,0 km/h (0 Bft)
01.01.2009 08:04 15,0 C -3,9 C 36 % 87 % 1029,7 hPa 0,0 l/m 0,0 km/h (0 Bft)
01.01.2009 08:06 15,1 C -3,9 C 36 % 87 % 1029,7 hPa 0,0 l/m 0,0 km/h (0 Bft)
01.01.2009 08:08 15,0 C -3,8 C 36 % 87 % 1029,7 hPa 0,0 l/m 0,0 km/h (0 Bft)
01.01.2009 08:10 15,1 C -3,8 C 36 % 87 % 1029,7 hPa 0,0 l/m 0,0 km/h (0 Bft)
01.01.2009 08:12 15,1 C -3,8 C 36 % 87 % 1029,7 hPa 0,0 l/m 0,0 km/h (0 Bft)
01.01.2009 08:14 15,1 C -3,8 C 36 % 87 % 1029,7 hPa 0,0 l/m 0,0 km/h (0 Bft)
01.01.2009 08:16 15,1 C -3,8 C 36 % 87 % 1029,7 hPa 0,0 l/m 0,0 km/h (0 Bft)
01.01.2009 08:18 15,1 C -3,8 C 36 % 87 % 1029,7 hPa 0,0 l/m 0,0 km/h (0 Bft)
01.01.2009 08:20 15,1 C -3,8 C 36 % 87 % 1029,7 hPa 0,0 l/m 0,0 km/h (0 Bft)
01.01.2009 08:22 15,1 C -3,8 C 36 % 87 % 1029,7 hPa 0,0 l/m 0,0 km/h (0 Bft)
01.01.2009 08:24 15,0 C -3,8 C 36 % 87 % 1029,7 hPa 0,0 l/m 0,0 km/h (0 Bft)
01.01.2009 08:26 15,0 C -3,8 C 36 % 87 % 1029,7 hPa 0,0 l/m 0,0 km/h (0 Bft)
01.01.2009 08:28 15,0 C -3,8 C 36 % 87 % 1029,7 hPa 0,0 l/m 0,0 km/h (0 Bft)
01.01.2009 08:30 15,0 C -3,8 C 36 % 87 % 1029,7 hPa 0,0 l/m 0,0 km/h (0 Bft)
01.01.2009 08:32 15,0 C -3,8 C 36 % 87 % 1029,7 hPa 0,0 l/m 0,0 km/h (0 Bft)
01.01.2009 08:34 15,0 C -3,8 C 36 % 87 % 1029,7 hPa 0,0 l/m 0,0 km/h (0 Bft)
01.01.2009 08:36 15,0 C -3,7 C 36 % 87 % 1029,7 hPa 0,0 l/m 0,0 km/h (0 Bft)
01.01.2009 08:38 15,0 C -3,8 C 36 % 87 % 1029,7 hPa 0,0 l/m 0,0 km/h (0 Bft)
01.01.2009 08:40 15,0 C -3,7 C 36 % 87 % 1029,7 hPa 0,0 l/m 0,0 km/h (0 Bft)
01.01.2009 08:42 15,0 C -3,8 C 36 % 87 % 1029,7 hPa 0,0 l/m 0,0 km/h (0 Bft)
01.01.2009 08:44 15,0 C -3,7 C 36 % 87 % 1029,7 hPa 0,0 l/m 0,0 km/h (0 Bft)
01.01.2009 08:46 15,0 C -3,8 C 36 % 87 % 1029,7 hPa 0,0 l/m 0,0 km/h (0 Bft)
01.01.2009 08:48 15,0 C -3,8 C 36 % 87 % 1029,7 hPa 0,0 l/m 0,0 km/h (0 Bft)
01.01.2009 08:50 15,0 C -3,8 C 37 % 87 % 1029,7 hPa 0,0 l/m 0,0 km/h (0 Bft)
01.01.2009 08:52 15,0 C -3,7 C 37 % 87 % 1029,7 hPa 0,0 l/m 0,0 km/h (0 Bft)
01.01.2009 08:54 15,1 C -3,8 C 37 % 87 % 1029,7 hPa 0,0 l/m 0,0 km/h (0 Bft)
01.01.2009 08:56 15,1 C -3,8 C 37 % 87 % 1029,7 hPa 0,0 l/m 0,0 km/h (0 Bft)
01.01.2009 08:58 15,1 C -3,8 C 37 % 87 % 1029,7 hPa 0,0 l/m 0,0 km/h (0 Bft)
01.01.2009 09:00 15,1 C -3,7 C 37 % 87 % 1029,7 hPa 0,0 l/m 0,0 km/h (0 Bft)
01.01.2009 09:02 15,2 C -3,7 C 37 % 87 % 1029,7 hPa 0,0 l/m 0,0 km/h (0 Bft)
01.01.2009 09:04 15,2 C -3,7 C 37 % 87 % 1029,7 hPa 0,0 l/m 0,0 km/h (0 Bft)
01.01.2009 09:06 15,2 C -3,7 C 37 % 87 % 1029,7 hPa 0,0 l/m 0,0 km/h (0 Bft)
01.01.2009 09:08 15,2 C -3,7 C 37 % 87 % 1029,7 hPa 0,0 l/m 0,0 km/h (0 Bft)
01.01.2009 09:10 15,2 C -3,7 C 37 % 87 % 1029,7 hPa 0,0 l/m 0,0 km/h (0 Bft)
01.01.2009 09:12 15,2 C -3,7 C 37 % 87 % 1029,7 hPa 0,0 l/m 0,0 km/h (0 Bft)
01.01.2009 09:14 15,2 C -3,7 C 37 % 87 % 1029,7 hPa 0,0 l/m 0,0 km/h (0 Bft)
01.01.2009 09:16 15,3 C -3,7 C 37 % 87 % 1029,7 hPa 0,0 l/m 0,0 km/h (0 Bft)
01.01.2009 09:18 15,3 C -3,7 C 37 % 87 % 1029,7 hPa 0,0 l/m 0,0 km/h (0 Bft)
01.01.2009 09:20 15,3 C -3,7 C 37 % 87 % 1029,7 hPa 0,0 l/m 0,0 km/h (0 Bft)
01.01.2009 09:22 15,3 C -3,7 C 37 % 87 % 1029,7 hPa 0,0 l/m 0,0 km/h (0 Bft)
01.01.2009 09:24 15,3 C -3,7 C 37 % 87 % 1029,7 hPa 0,0 l/m 0,0 km/h (0 Bft)
01.01.2009 09:26 15,4 C -3,7 C 36 % 87 % 1029,7 hPa 0,0 l/m 0,0 km/h (0 Bft)
01.01.2009 09:28 15,4 C -3,7 C 36 % 87 % 1029,7 hPa 0,0 l/m 0,0 km/h (0 Bft)
01.01.2009 09:30 15,4 C -3,7 C 36 % 87 % 1029,7 hPa 0,0 l/m 0,0 km/h (0 Bft)
01.01.2009 09:32 15,4 C -3,7 C 36 % 87 % 1029,7 hPa 0,0 l/m 0,0 km/h (0 Bft)
01.01.2009 09:34 15,4 C -3,7 C 36 % 87 % 1029,7 hPa 0,0 l/m 0,0 km/h (0 Bft)
01.01.2009 09:36 15,4 C -3,7 C 36 % 87 % 1029,7 hPa 0,0 l/m 0,0 km/h (0 Bft)
01.01.2009 09:38 15,4 C -3,7 C 36 % 87 % 1029,7 hPa 0,0 l/m 0,0 km/h (0 Bft)
01.01.2009 09:40 15,4 C -3,6 C 36 % 87 % 1029,7 hPa 0,0 l/m 0,0 km/h (0 Bft)
01.01.2009 09:42 15,4 C -3,7 C 36 % 87 % 1029,7 hPa 0,0 l/m 0,0 km/h (0 Bft)
01.01.2009 09:44 15,4 C -3,6 C 36 % 87 % 1029,7 hPa 0,0 l/m 0,0 km/h (0 Bft)
01.01.2009 09:46 15,4 C -3,7 C 36 % 87 % 1029,7 hPa 0,0 l/m 0,0 km/h (0 Bft)
01.01.2009 09:48 15,4 C -3,7 C 36 % 87 % 1029,7 hPa 0,0 l/m 0,0 km/h (0 Bft)
01.01.2009 09:50 15,4 C -3,7 C 36 % 86 % 1029,7 hPa 0,0 l/m 0,0 km/h (0 Bft)
01.01.2009 09:52 15,4 C -3,7 C 36 % 86 % 1029,7 hPa 0,0 l/m 0,0 km/h (0 Bft)
01.01.2009 09:54 15,4 C -3,7 C 37 % 87 % 1029,7 hPa 0,0 l/m 0,0 km/h (0 Bft)
01.01.2009 09:56 15,4 C -3,7 C 37 % 86 % 1029,7 hPa 0,0 l/m 0,0 km/h (0 Bft)
01.01.2009 09:58 15,4 C -3,6 C 37 % 86 % 1030,7 hPa 0,0 l/m 0,0 km/h (0 Bft)
01.01.2009 10:00 15,4 C -3,6 C 37 % 86 % 1029,7 hPa 0,0 l/m 0,0 km/h (0 Bft)
01.01.2009 10:02 15,5 C -3,6 C 37 % 86 % 1029,7 hPa 0,0 l/m 0,0 km/h (0 Bft)
01.01.2009 10:04 15,5 C -3,6 C 37 % 86 % 1029,7 hPa 0,0 l/m 0,0 km/h (0 Bft)
01.01.2009 10:06 15,5 C -3,6 C 37 % 86 % 1029,7 hPa 0,0 l/m 0,0 km/h (0 Bft)
01.01.2009 10:08 15,6 C -3,6 C 37 % 86 % 1029,7 hPa 0,0 l/m 0,0 km/h (0 Bft)
01.01.2009 10:10 15,6 C -3,6 C 37 % 86 % 1029,7 hPa 0,0 l/m 0,0 km/h (0 Bft)
01.01.2009 10:12 15,6 C -3,6 C 36 % 86 % 1030,7 hPa 0,0 l/m 0,0 km/h (0 Bft)
01.01.2009 10:14 15,6 C -3,6 C 37 % 86 % 1029,7 hPa 0,0 l/m 0,0 km/h (0 Bft)
01.01.2009 10:16 15,6 C -3,6 C 37 % 86 % 1029,7 hPa 0,0 l/m 0,0 km/h (0 Bft)
01.01.2009 10:18 15,6 C -3,6 C 36 % 86 % 1029,7 hPa 0,0 l/m 0,0 km/h (0 Bft)
01.01.2009 10:20 15,6 C -3,6 C 37 % 86 % 1030,7 hPa 0,0 l/m 0,0 km/h (0 Bft)
01.01.2009 10:22 15,6 C -3,6 C 37 % 86 % 1030,7 hPa 0,0 l/m 0,0 km/h (0 Bft)
01.01.2009 10:24 15,6 C -3,6 C 37 % 86 % 1030,7 hPa 0,0 l/m 0,0 km/h (0 Bft)
01.01.2009 10:26 15,7 C -3,6 C 37 % 86 % 1030,7 hPa 0,0 l/m 0,0 km/h (0 Bft)
01.01.2009 10:28 15,7 C -3,6 C 37 % 86 % 1030,7 hPa 0,0 l/m 0,0 km/h (0 Bft)
01.01.2009 10:30 15,7 C -3,5 C 37 % 86 % 1030,7 hPa 0,0 l/m 0,0 km/h (0 Bft)
01.01.2009 10:32 15,7 C -3,5 C 37 % 86 % 1030,7 hPa 0,0 l/m 0,0 km/h (0 Bft)
01.01.2009 10:34 15,8 C -3,5 C 37 % 86 % 1030,7 hPa 0,0 l/m 0,0 km/h (0 Bft)
01.01.2009 10:36 15,8 C -3,5 C 37 % 86 % 1030,7 hPa 0,0 l/m 0,0 km/h (0 Bft)
01.01.2009 10:38 15,8 C -3,5 C 37 % 86 % 1030,7 hPa 0,0 l/m 0,0 km/h (0 Bft)
01.01.2009 10:40 15,8 C -3,5 C 37 % 86 % 1030,7 hPa 0,0 l/m 0,0 km/h (0 Bft)
01.01.2009 10:42 15,8 C -3,4 C 37 % 86 % 1030,7 hPa 0,0 l/m 0,0 km/h (0 Bft)
01.01.2009 10:44 15,8 C -3,5 C 37 % 86 % 1030,7 hPa 0,0 l/m 0,0 km/h (0 Bft)
01.01.2009 10:46 15,9 C -3,5 C 37 % 86 % 1030,7 hPa 0,0 l/m 0,0 km/h (0 Bft)
01.01.2009 10:48 15,9 C -3,4 C 37 % 86 % 1030,7 hPa 0,0 l/m 0,0 km/h (0 Bft)
01.01.2009 10:50 15,9 C -3,4 C 37 % 86 % 1030,7 hPa 0,0 l/m 0,0 km/h (0 Bft)
01.01.2009 10:52 16,0 C -3,4 C 37 % 86 % 1030,7 hPa 0,0 l/m 0,0 km/h (0 Bft)
01.01.2009 10:54 16,0 C -3,4 C 37 % 86 % 1030,7 hPa 0,0 l/m 0,0 km/h (0 Bft)
01.01.2009 10:56 16,0 C -3,4 C 37 % 86 % 1030,7 hPa 0,0 l/m 0,0 km/h (0 Bft)
01.01.2009 10:58 16,0 C -3,3 C 37 % 86 % 1030,7 hPa 0,0 l/m 0,0 km/h (0 Bft)
01.01.2009 11:00 16,0 C -3,3 C 37 % 86 % 1030,7 hPa 0,0 l/m 0,0 km/h (0 Bft)
01.01.2009 11:02 16,0 C -3,3 C 37 % 86 % 1030,7 hPa 0,0 l/m 0,0 km/h (0 Bft)
01.01.2009 11:04 16,0 C -3,2 C 37 % 86 % 1030,7 hPa 0,0 l/m 0,0 km/h (0 Bft)
01.01.2009 11:06 16,0 C -3,3 C 37 % 86 % 1030,7 hPa 0,0 l/m 0,0 km/h (0 Bft)
01.01.2009 11:08 16,0 C -3,3 C 37 % 86 % 1030,7 hPa 0,0 l/m 0,0 km/h (0 Bft)
01.01.2009 11:10 16,0 C -3,2 C 37 % 86 % 1030,7 hPa 0,0 l/m 0,0 km/h (0 Bft)
01.01.2009 11:12 16,0 C -3,2 C 37 % 86 % 1030,7 hPa 0,0 l/m 0,0 km/h (0 Bft)
01.01.2009 11:14 16,1 C -3,2 C 37 % 86 % 1030,7 hPa 0,0 l/m 0,0 km/h (0 Bft)
01.01.2009 11:16 16,1 C -3,2 C 37 % 86 % 1030,7 hPa 0,0 l/m 0,0 km/h (0 Bft)
01.01.2009 11:18 16,1 C -3,2 C 38 % 86 % 1030,7 hPa 0,0 l/m 0,0 km/h (0 Bft)
01.01.2009 11:20 16,1 C -3,2 C 38 % 86 % 1030,7 hPa 0,0 l/m 0,0 km/h (0 Bft)
01.01.2009 11:22 16,1 C -3,2 C 38 % 86 % 1030,7 hPa 0,0 l/m 0,0 km/h (0 Bft)
01.01.2009 11:24 16,1 C -3,1 C 38 % 86 % 1030,7 hPa 0,0 l/m 0,0 km/h (0 Bft)
01.01.2009 11:26 16,1 C -3,1 C 37 % 86 % 1030,7 hPa 0,0 l/m 0,0 km/h (0 Bft)
01.01.2009 11:28 16,1 C -3,2 C 38 % 86 % 1030,7 hPa 0,0 l/m 0,0 km/h (0 Bft)
01.01.2009 11:30 16,1 C -3,2 C 37 % 86 % 1030,7 hPa 0,0 l/m 0,0 km/h (0 Bft)
01.01.2009 11:32 16,1 C -3,1 C 38 % 86 % 1030,7 hPa 0,0 l/m 0,0 km/h (0 Bft)
01.01.2009 11:34 16,1 C -3,1 C 38 % 86 % 1030,7 hPa 0,0 l/m 0,0 km/h (0 Bft)
01.01.2009 11:36 16,1 C -3,1 C 38 % 86 % 1030,7 hPa 0,0 l/m 0,0 km/h (0 Bft)
01.01.2009 11:38 16,1 C -3,1 C 38 % 86 % 1030,7 hPa 0,0 l/m 0,0 km/h (0 Bft)
01.01.2009 11:40 16,1 C -3,1 C 38 % 86 % 1030,7 hPa 0,0 l/m 0,0 km/h (0 Bft)
01.01.2009 11:42 16,1 C -3,1 C 38 % 86 % 1030,7 hPa 0,0 l/m 0,0 km/h (0 Bft)
01.01.2009 11:44 16,0 C -3,0 C 38 % 86 % 1030,7 hPa 0,0 l/m 0,0 km/h (0 Bft)
01.01.2009 11:46 16,1 C -3,0 C 38 % 86 % 1030,7 hPa 0,0 l/m 0,0 km/h (0 Bft)
01.01.2009 11:48 16,0 C -2,9 C 38 % 86 % 1030,7 hPa 0,0 l/m 0,0 km/h (0 Bft)
01.01.2009 11:50 16,1 C -3,0 C 38 % 86 % 1030,7 hPa 0,0 l/m 0,0 km/h (0 Bft)
01.01.2009 11:52 16,0 C -2,9 C 38 % 86 % 1030,7 hPa 0,0 l/m 0,0 km/h (0 Bft)
01.01.2009 11:54 16,0 C -2,9 C 38 % 86 % 1030,7 hPa 0,0 l/m 0,0 km/h (0 Bft)
01.01.2009 11:56 16,0 C -2,8 C 38 % 86 % 1030,7 hPa 0,0 l/m 0,0 km/h (0 Bft)
01.01.2009 11:58 16,0 C -2,9 C 38 % 86 % 1030,7 hPa 0,0 l/m 0,0 km/h (0 Bft)
01.01.2009 12:00 16,0 C -2,9 C 38 % 86 % 1030,7 hPa 0,0 l/m 0,0 km/h (0 Bft)
01.01.2009 12:02 16,0 C -2,8 C 38 % 86 % 1030,7 hPa 0,0 l/m 0,0 km/h (0 Bft)
01.01.2009 12:04 16,0 C -2,8 C 38 % 86 % 1029,7 hPa 0,0 l/m 0,0 km/h (0 Bft)
01.01.2009 12:06 16,0 C -2,7 C 38 % 86 % 1030,7 hPa 0,0 l/m 0,0 km/h (0 Bft)
01.01.2009 12:08 16,0 C -2,8 C 38 % 86 % 1029,7 hPa 0,0 l/m 0,0 km/h (0 Bft)
01.01.2009 12:10 16,0 C -2,8 C 38 % 86 % 1029,7 hPa 0,0 l/m 0,0 km/h (0 Bft)
01.01.2009 12:12 15,9 C -2,8 C 38 % 86 % 1029,7 hPa 0,0 l/m 0,0 km/h (0 Bft)
01.01.2009 12:14 15,9 C -2,7 C 38 % 86 % 1029,7 hPa 0,0 l/m 0,0 km/h (0 Bft)
01.01.2009 12:16 15,9 C -2,7 C 38 % 86 % 1029,7 hPa 0,0 l/m 0,0 km/h (0 Bft)
01.01.2009 12:18 15,9 C -2,7 C 38 % 86 % 1029,7 hPa 0,0 l/m 0,0 km/h (0 Bft)
01.01.2009 12:20 15,9 C -2,7 C 38 % 86 % 1029,7 hPa 0,0 l/m 0,0 km/h (0 Bft)
01.01.2009 12:22 15,9 C -2,7 C 38 % 86 % 1029,7 hPa 0,0 l/m 0,0 km/h (0 Bft)
01.01.2009 12:24 16,0 C -2,7 C 38 % 86 % 1029,7 hPa 0,0 l/m 0,0 km/h (0 Bft)
01.01.2009 12:26 16,0 C -2,6 C 38 % 86 % 1029,7 hPa 0,0 l/m 0,0 km/h (0 Bft)
01.01.2009 12:28 16,0 C -2,6 C 38 % 86 % 1029,7 hPa 0,0 l/m 0,0 km/h (0 Bft)
01.01.2009 12:30 16,0 C -2,6 C 38 % 86 % 1029,7 hPa 0,0 l/m 0,0 km/h (0 Bft)
01.01.2009 12:32 16,0 C -2,6 C 38 % 86 % 1029,7 hPa 0,0 l/m 0,0 km/h (0 Bft)
01.01.2009 12:34 16,0 C -2,6 C 38 % 86 % 1029,7 hPa 0,0 l/m 0,0 km/h (0 Bft)
01.01.2009 12:36 16,1 C -2,5 C 38 % 86 % 1029,7 hPa 0,0 l/m 0,0 km/h (0 Bft)
01.01.2009 12:38 16,1 C -2,5 C 38 % 86 % 1029,7 hPa 0,0 l/m 0,0 km/h (0 Bft)
01.01.2009 12:40 16,1 C -2,5 C 38 % 86 % 1030,7 hPa 0,0 l/m 0,0 km/h (0 Bft)
01.01.2009 12:42 16,1 C -2,4 C 38 % 86 % 1030,7 hPa 0,0 l/m 0,0 km/h (0 Bft)
01.01.2009 12:44 16,1 C -2,4 C 38 % 86 % 1030,7 hPa 0,0 l/m 0,0 km/h (0 Bft)
01.01.2009 12:46 16,1 C -2,4 C 38 % 86 % 1029,7 hPa 0,0 l/m 0,0 km/h (0 Bft)
01.01.2009 12:48 16,1 C -2,4 C 38 % 86 % 1029,7 hPa 0,0 l/m 0,0 km/h (0 Bft)
01.01.2009 12:50 16,2 C -2,4 C 38 % 86 % 1029,7 hPa 0,0 l/m 0,0 km/h (0 Bft)
01.01.2009 12:52 16,2 C -2,2 C 38 % 86 % 1029,7 hPa 0,0 l/m 0,0 km/h (0 Bft)
01.01.2009 12:54 16,2 C -2,4 C 37 % 86 % 1030,7 hPa 0,0 l/m 0,0 km/h (0 Bft)
01.01.2009 12:56 16,2 C -2,3 C 37 % 86 % 1030,7 hPa 0,0 l/m 0,0 km/h (0 Bft)
01.01.2009 12:58 16,2 C -2,3 C 37 % 86 % 1030,7 hPa 0,0 l/m 0,0 km/h (0 Bft)
01.01.2009 13:00 16,2 C -2,2 C 37 % 86 % 1030,7 hPa 0,0 l/m 0,0 km/h (0 Bft)
01.01.2009 13:02 16,2 C -2,2 C 37 % 86 % 1030,7 hPa 0,0 l/m 0,0 km/h (0 Bft)
01.01.2009 13:04 16,2 C -2,2 C 37 % 86 % 1030,7 hPa 0,0 l/m 0,0 km/h (0 Bft)
01.01.2009 13:06 16,2 C -2,2 C 37 % 86 % 1029,7 hPa 0,0 l/m 0,0 km/h (0 Bft)
01.01.2009 13:08 16,2 C -2,2 C 37 % 86 % 1029,7 hPa 0,0 l/m 0,0 km/h (0 Bft)
01.01.2009 13:10 16,2 C -2,1 C 37 % 86 % 1029,7 hPa 0,0 l/m 0,0 km/h (0 Bft)
01.01.2009 13:12 16,2 C -2,1 C 37 % 86 % 1029,7 hPa 0,0 l/m 0,0 km/h (0 Bft)
01.01.2009 13:14 16,2 C -2,1 C 37 % 86 % 1029,7 hPa 0,0 l/m 0,0 km/h (0 Bft)
01.01.2009 13:16 16,2 C -2,1 C 37 % 86 % 1029,7 hPa 0,0 l/m 0,0 km/h (0 Bft)
01.01.2009 13:18 16,3 C -2,1 C 37 % 86 % 1029,7 hPa 0,0 l/m 0,0 km/h (0 Bft)
01.01.2009 13:20 16,3 C -2,1 C 37 % 86 % 1029,7 hPa 0,0 l/m 0,0 km/h (0 Bft)
01.01.2009 13:22 16,3 C -2,1 C 37 % 86 % 1029,7 hPa 0,0 l/m 0,0 km/h (0 Bft)
01.01.2009 13:24 16,3 C -2,1 C 37 % 86 % 1029,7 hPa 0,0 l/m 0,0 km/h (0 Bft)
01.01.2009 13:26 16,3 C -2,1 C 37 % 86 % 1029,7 hPa 0,0 l/m 0,0 km/h (0 Bft)
01.01.2009 13:28 16,3 C -2,1 C 37 % 86 % 1029,7 hPa 0,0 l/m 0,0 km/h (0 Bft)
01.01.2009 13:30 16,3 C -1,9 C 37 % 86 % 1029,7 hPa 0,0 l/m 0,0 km/h (0 Bft)
01.01.2009 13:32 16,3 C -1,9 C 37 % 86 % 1029,7 hPa 0,0 l/m 0,0 km/h (0 Bft)
01.01.2009 13:34 16,4 C -1,9 C 37 % 86 % 1029,7 hPa 0,0 l/m 0,0 km/h (0 Bft)
01.01.2009 13:36 16,4 C -1,9 C 37 % 86 % 1029,7 hPa 0,0 l/m 0,0 km/h (0 Bft)
01.01.2009 13:38 16,4 C -1,9 C 37 % 86 % 1029,7 hPa 0,0 l/m 0,0 km/h (0 Bft)
01.01.2009 13:40 16,4 C -1,9 C 37 % 86 % 1029,7 hPa 0,0 l/m 0,0 km/h (0 Bft)
01.01.2009 13:42 16,4 C -1,9 C 37 % 86 % 1029,7 hPa 0,0 l/m 0,0 km/h (0 Bft)
01.01.2009 13:44 16,4 C -1,9 C 37 % 85 % 1029,7 hPa 0,0 l/m 0,0 km/h (0 Bft)
01.01.2009 13:46 16,4 C -1,9 C 37 % 86 % 1029,7 hPa 0,0 l/m 0,0 km/h (0 Bft)
01.01.2009 13:48 16,4 C -1,8 C 37 % 85 % 1029,7 hPa 0,0 l/m 0,0 km/h (0 Bft)
01.01.2009 13:50 16,4 C -1,8 C 37 % 85 % 1029,7 hPa 0,0 l/m 0,0 km/h (0 Bft)
01.01.2009 13:52 16,4 C -1,9 C 37 % 85 % 1029,7 hPa 0,0 l/m 0,0 km/h (0 Bft)
01.01.2009 13:54 16,4 C -1,8 C 37 % 85 % 1029,7 hPa 0,0 l/m 0,0 km/h (0 Bft)
01.01.2009 13:56 16,4 C -1,8 C 37 % 85 % 1029,7 hPa 0,0 l/m 0,0 km/h (0 Bft)
01.01.2009 13:58 16,4 C -1,8 C 37 % 85 % 1029,7 hPa 0,0 l/m 0,0 km/h (0 Bft)
01.01.2009 14:00 16,4 C -1,8 C 37 % 85 % 1029,7 hPa 0,0 l/m 0,0 km/h (0 Bft)
01.01.2009 14:02 16,4 C -1,8 C 37 % 85 % 1029,7 hPa 0,0 l/m 0,0 km/h (0 Bft)
01.01.2009 14:04 16,4 C -1,8 C 37 % 85 % 1029,7 hPa 0,0 l/m 0,0 km/h (0 Bft)
01.01.2009 14:06 16,4 C -1,8 C 37 % 85 % 1029,7 hPa 0,0 l/m 0,0 km/h (0 Bft)
01.01.2009 14:08 16,4 C -1,8 C 37 % 85 % 1029,7 hPa 0,0 l/m 0,0 km/h (0 Bft)
01.01.2009 14:10 16,4 C -1,7 C 37 % 85 % 1029,7 hPa 0,0 l/m 0,0 km/h (0 Bft)
01.01.2009 14:12 16,4 C -1,8 C 37 % 85 % 1029,7 hPa 0,0 l/m 0,0 km/h (0 Bft)
01.01.2009 14:14 16,4 C -1,7 C 37 % 85 % 1029,7 hPa 0,0 l/m 0,0 km/h (0 Bft)
01.01.2009 14:16 16,4 C -1,7 C 37 % 85 % 1029,7 hPa 0,0 l/m 0,0 km/h (0 Bft)
01.01.2009 14:18 16,4 C -1,7 C 37 % 85 % 1029,7 hPa 0,0 l/m 0,0 km/h (0 Bft)
01.01.2009 14:20 16,4 C -1,6 C 37 % 85 % 1029,7 hPa 0,0 l/m 0,0 km/h (0 Bft)
01.01.2009 14:22 16,4 C -1,7 C 37 % 85 % 1029,7 hPa 0,0 l/m 0,0 km/h (0 Bft)
01.01.2009 14:24 16,4 C -1,7 C 37 % 85 % 1028,7 hPa 0,0 l/m 0,0 km/h (0 Bft)
01.01.2009 14:26 16,4 C -1,6 C 37 % 85 % 1028,6 hPa 0,0 l/m 0,0 km/h (0 Bft)
01.01.2009 14:28 16,4 C -1,6 C 37 % 85 % 1029,7 hPa 0,0 l/m 0,0 km/h (0 Bft)
01.01.2009 14:30 16,4 C -1,6 C 37 % 85 % 1029,7 hPa 0,0 l/m 0,0 km/h (0 Bft)
01.01.2009 14:32 16,5 C -1,6 C 37 % 85 % 1029,7 hPa 0,0 l/m 0,0 km/h (0 Bft)
01.01.2009 14:34 16,4 C -1,6 C 37 % 85 % 1029,7 hPa 0,0 l/m 0,0 km/h (0 Bft)
01.01.2009 14:36 16,4 C -1,6 C 37 % 85 % 1029,7 hPa 0,0 l/m 0,0 km/h (0 Bft)
01.01.2009 14:38 16,5 C -1,6 C 37 % 85 % 1029,7 hPa 0,0 l/m 0,0 km/h (0 Bft)
01.01.2009 14:40 16,5 C -1,6 C 37 % 85 % 1029,7 hPa 0,0 l/m 0,0 km/h (0 Bft)
01.01.2009 14:42 16,5 C -1,6 C 37 % 85 % 1029,7 hPa 0,0 l/m 0,0 km/h (0 Bft)
01.01.2009 14:44 16,5 C -1,6 C 37 % 85 % 1029,7 hPa 0,0 l/m 0,0 km/h (0 Bft)
01.01.2009 14:46 16,5 C -1,6 C 37 % 85 % 1029,7 hPa 0,0 l/m 0,0 km/h (0 Bft)
01.01.2009 14:48 16,5 C -1,6 C 37 % 85 % 1029,7 hPa 0,0 l/m 0,0 km/h (0 Bft)
01.01.2009 14:50 16,5 C -1,6 C 37 % 85 % 1029,7 hPa 0,0 l/m 0,0 km/h (0 Bft)
01.01.2009 14:52 16,5 C -1,6 C 37 % 85 % 1029,7 hPa 0,0 l/m 0,0 km/h (0 Bft)
01.01.2009 14:54 16,5 C -1,5 C 37 % 85 % 1029,7 hPa 0,0 l/m 0,0 km/h (0 Bft)
01.01.2009 14:56 16,5 C -1,5 C 37 % 85 % 1029,7 hPa 0,0 l/m 0,0 km/h (0 Bft)
01.01.2009 14:58 16,5 C -1,5 C 37 % 85 % 1029,7 hPa 0,0 l/m 0,0 km/h (0 Bft)
01.01.2009 15:00 16,5 C -1,5 C 37 % 85 % 1029,7 hPa 0,0 l/m 0,0 km/h (0 Bft)
01.01.2009 15:02 16,5 C -1,6 C 37 % 85 % 1029,7 hPa 0,0 l/m 0,0 km/h (0 Bft)
01.01.2009 15:04 16,6 C -1,4 C 37 % 85 % 1029,6 hPa 0,0 l/m 0,0 km/h (0 Bft)
01.01.2009 15:06 16,6 C -1,5 C 37 % 85 % 1029,7 hPa 0,0 l/m 0,0 km/h (0 Bft)
01.01.2009 15:08 16,6 C -1,5 C 37 % 85 % 1029,7 hPa 0,0 l/m 0,0 km/h (0 Bft)
01.01.2009 15:10 16,6 C -1,4 C 37 % 85 % 1029,6 hPa 0,0 l/m 0,0 km/h (0 Bft)
01.01.2009 15:12 16,6 C -1,5 C 37 % 85 % 1029,7 hPa 0,0 l/m 0,0 km/h (0 Bft)
01.01.2009 15:14 16,6 C -1,4 C 37 % 85 % 1029,6 hPa 0,0 l/m 0,0 km/h (0 Bft)
01.01.2009 15:16 16,6 C -1,4 C 37 % 85 % 1029,6 hPa 0,0 l/m 0,0 km/h (0 Bft)
01.01.2009 15:18 16,6 C -1,4 C 37 % 85 % 1029,6 hPa 0,0 l/m 0,0 km/h (0 Bft)
01.01.2009 15:20 16,6 C -1,4 C 37 % 85 % 1029,6 hPa 0,0 l/m 0,0 km/h (0 Bft)
01.01.2009 15:22 16,6 C -1,4 C 37 % 85 % 1029,6 hPa 0,0 l/m 0,0 km/h (0 Bft)
01.01.2009 15:24 16,6 C -1,4 C 37 % 85 % 1029,6 hPa 0,0 l/m 0,0 km/h (0 Bft)
01.01.2009 15:26 16,6 C -1,4 C 37 % 85 % 1029,6 hPa 0,0 l/m 0,0 km/h (0 Bft)
01.01.2009 15:28 16,6 C -1,4 C 37 % 85 % 1029,6 hPa 0,0 l/m 0,0 km/h (0 Bft)
01.01.2009 15:30 16,5 C -1,4 C 37 % 85 % 1029,6 hPa 0,0 l/m 0,0 km/h (0 Bft)
01.01.2009 15:32 16,6 C -1,4 C 37 % 85 % 1029,6 hPa 0,0 l/m 0,0 km/h (0 Bft)
01.01.2009 15:34 16,5 C -1,5 C 37 % 85 % 1029,7 hPa 0,0 l/m 0,0 km/h (0 Bft)
01.01.2009 15:36 16,5 C -1,4 C 37 % 85 % 1029,6 hPa 0,0 l/m 0,0 km/h (0 Bft)
01.01.2009 15:38 16,5 C -1,4 C 37 % 85 % 1029,6 hPa 0,0 l/m 0,0 km/h (0 Bft)
01.01.2009 15:40 16,5 C -1,5 C 37 % 85 % 1029,7 hPa 0,0 l/m 0,0 km/h (0 Bft)
01.01.2009 15:42 16,4 C -1,4 C 37 % 85 % 1029,6 hPa 0,0 l/m 0,0 km/h (0 Bft)
01.01.2009 15:44 16,4 C -1,5 C 37 % 85 % 1029,7 hPa 0,0 l/m 0,0 km/h (0 Bft)
01.01.2009 15:46 16,4 C -1,5 C 37 % 85 % 1029,7 hPa 0,0 l/m 0,0 km/h (0 Bft)
01.01.2009 15:48 16,4 C -1,5 C 37 % 85 % 1029,7 hPa 0,0 l/m 0,0 km/h (0 Bft)
01.01.2009 15:50 16,4 C -1,5 C 37 % 85 % 1029,7 hPa 0,0 l/m 0,0 km/h (0 Bft)
01.01.2009 15:52 16,4 C -1,4 C 37 % 85 % 1029,6 hPa 0,0 l/m 0,0 km/h (0 Bft)
01.01.2009 15:54 16,4 C -1,5 C 37 % 85 % 1029,7 hPa 0,0 l/m 0,0 km/h (0 Bft)
01.01.2009 15:56 16,4 C -1,5 C 37 % 85 % 1029,7 hPa 0,0 l/m 0,0 km/h (0 Bft)
01.01.2009 15:58 16,4 C -1,5 C 37 % 85 % 1029,7 hPa 0,0 l/m 0,0 km/h (0 Bft)
01.01.2009 16:00 16,4 C -1,5 C 37 % 85 % 1029,7 hPa 0,0 l/m 0,0 km/h (0 Bft)
01.01.2009 16:02 16,4 C -1,5 C 37 % 85 % 1029,7 hPa 0,0 l/m 0,0 km/h (0 Bft)
01.01.2009 16:04 16,4 C -1,5 C 37 % 85 % 1029,7 hPa 0,0 l/m 0,0 km/h (0 Bft)
01.01.2009 16:06 16,4 C -1,5 C 37 % 85 % 1029,7 hPa 0,0 l/m 0,0 km/h (0 Bft)
01.01.2009 16:08 16,4 C -1,5 C 37 % 85 % 1029,7 hPa 0,0 l/m 0,0 km/h (0 Bft)
01.01.2009 16:10 16,4 C -1,5 C 37 % 85 % 1029,7 hPa 0,0 l/m 0,0 km/h (0 Bft)
01.01.2009 16:12 16,4 C -1,5 C 37 % 85 % 1029,7 hPa 0,0 l/m 0,0 km/h (0 Bft)
01.01.2009 16:14 16,5 C -1,5 C 37 % 85 % 1029,7 hPa 0,0 l/m 0,0 km/h (0 Bft)
01.01.2009 16:16 16,5 C -1,5 C 37 % 85 % 1029,7 hPa 0,0 l/m 0,0 km/h (0 Bft)
01.01.2009 16:18 16,5 C -1,5 C 37 % 85 % 1029,7 hPa 0,0 l/m 0,0 km/h (0 Bft)
01.01.2009 16:20 16,5 C -1,5 C 37 % 85 % 1029,7 hPa 0,0 l/m 0,0 km/h (0 Bft)
01.01.2009 16:22 16,5 C -1,5 C 37 % 85 % 1029,7 hPa 0,0 l/m 0,0 km/h (0 Bft)
01.01.2009 16:24 16,5 C -1,5 C 37 % 85 % 1029,7 hPa 0,0 l/m 0,0 km/h (0 Bft)
01.01.2009 16:26 16,6 C -1,5 C 37 % 85 % 1029,7 hPa 0,0 l/m 0,0 km/h (0 Bft)
01.01.2009 16:28 16,6 C -1,5 C 37 % 85 % 1029,7 hPa 0,0 l/m 0,0 km/h (0 Bft)
01.01.2009 16:30 16,6 C -1,5 C 37 % 85 % 1029,7 hPa 0,0 l/m 0,0 km/h (0 Bft)
01.01.2009 16:32 16,6 C -1,5 C 37 % 85 % 1029,7 hPa 0,0 l/m 0,0 km/h (0 Bft)
01.01.2009 16:34 16,6 C -1,5 C 37 % 85 % 1029,7 hPa 0,0 l/m 0,0 km/h (0 Bft)
01.01.2009 16:36 16,6 C -1,5 C 37 % 85 % 1029,7 hPa 0,0 l/m 0,0 km/h (0 Bft)
01.01.2009 16:38 16,6 C -1,5 C 37 % 85 % 1029,7 hPa 0,0 l/m 0,0 km/h (0 Bft)
01.01.2009 16:40 16,6 C -1,5 C 37 % 85 % 1029,7 hPa 0,0 l/m 0,0 km/h (0 Bft)
01.01.2009 16:42 16,6 C -1,5 C 37 % 85 % 1029,7 hPa 0,0 l/m 0,0 km/h (0 Bft)
01.01.2009 16:44 16,6 C -1,5 C 37 % 85 % 1029,7 hPa 0,0 l/m 0,0 km/h (0 Bft)
01.01.2009 16:46 16,6 C -1,5 C 37 % 85 % 1029,7 hPa 0,0 l/m 0,0 km/h (0 Bft)
01.01.2009 16:48 16,6 C -1,5 C 37 % 85 % 1029,7 hPa 0,0 l/m 0,0 km/h (0 Bft)
01.01.2009 16:50 16,6 C -1,5 C 37 % 85 % 1029,7 hPa 0,0 l/m 0,0 km/h (0 Bft)
01.01.2009 16:52 16,6 C -1,5 C 37 % 85 % 1029,7 hPa 0,0 l/m 0,0 km/h (0 Bft)
01.01.2009 16:54 16,6 C -1,5 C 37 % 85 % 1029,7 hPa 0,0 l/m 0,0 km/h (0 Bft)
01.01.2009 16:56 16,6 C -1,5 C 37 % 85 % 1029,7 hPa 0,0 l/m 0,0 km/h (0 Bft)
01.01.2009 16:58 16,5 C -1,5 C 37 % 85 % 1029,7 hPa 0,0 l/m 0,0 km/h (0 Bft)
01.01.2009 17:00 16,5 C -1,5 C 37 % 85 % 1029,7 hPa 0,0 l/m 0,0 km/h (0 Bft)
01.01.2009 17:02 16,5 C -1,6 C 37 % 85 % 1029,7 hPa 0,0 l/m 0,0 km/h (0 Bft)
01.01.2009 17:04 16,5 C -1,5 C 37 % 85 % 1029,7 hPa 0,0 l/m 0,0 km/h (0 Bft)
01.01.2009 17:06 16,5 C -1,6 C 37 % 85 % 1029,7 hPa 0,0 l/m 0,0 km/h (0 Bft)
01.01.2009 17:08 16,5 C -1,6 C 37 % 85 % 1029,7 hPa 0,0 l/m 0,0 km/h (0 Bft)
01.01.2009 17:10 16,5 C -1,5 C 37 % 85 % 1029,7 hPa 0,0 l/m 0,0 km/h (0 Bft)
01.01.2009 17:12 16,4 C -1,6 C 37 % 85 % 1029,7 hPa 0,0 l/m 0,0 km/h (0 Bft)
01.01.2009 17:14 16,4 C -1,6 C 37 % 85 % 1029,7 hPa 0,0 l/m 0,0 km/h (0 Bft)
01.01.2009 17:16 16,4 C -1,6 C 37 % 85 % 1029,7 hPa 0,0 l/m 0,0 km/h (0 Bft)
01.01.2009 17:18 16,4 C -1,6 C 37 % 85 % 1029,7 hPa 0,0 l/m 0,0 km/h (0 Bft)
01.01.2009 17:20 16,4 C -1,6 C 37 % 85 % 1029,7 hPa 0,0 l/m 0,0 km/h (0 Bft)
01.01.2009 17:22 16,4 C -1,6 C 37 % 85 % 1029,7 hPa 0,0 l/m 0,0 km/h (0 Bft)
01.01.2009 17:24 16,4 C -1,6 C 37 % 85 % 1029,7 hPa 0,0 l/m 0,0 km/h (0 Bft)
01.01.2009 17:26 16,4 C -1,6 C 37 % 85 % 1029,7 hPa 0,0 l/m 0,0 km/h (0 Bft)
01.01.2009 17:28 16,4 C -1,6 C 37 % 85 % 1029,7 hPa 0,0 l/m 0,0 km/h (0 Bft)
01.01.2009 17:30 16,4 C -1,6 C 37 % 85 % 1029,7 hPa 0,0 l/m 0,0 km/h (0 Bft)
01.01.2009 17:32 16,4 C -1,6 C 37 % 85 % 1029,7 hPa 0,0 l/m 0,0 km/h (0 Bft)
01.01.2009 17:34 16,4 C -1,6 C 37 % 85 % 1029,7 hPa 0,0 l/m 0,0 km/h (0 Bft)
01.01.2009 17:36 16,4 C -1,6 C 37 % 85 % 1029,7 hPa 0,0 l/m 0,0 km/h (0 Bft)
01.01.2009 17:38 16,4 C -1,6 C 37 % 85 % 1029,7 hPa 0,0 l/m 0,0 km/h (0 Bft)
01.01.2009 17:40 16,4 C -1,6 C 37 % 85 % 1029,7 hPa 0,0 l/m 0,0 km/h (0 Bft)
01.01.2009 17:42 16,4 C -1,6 C 37 % 85 % 1029,7 hPa 0,0 l/m 0,0 km/h (0 Bft)
01.01.2009 17:44 16,4 C -1,6 C 37 % 85 % 1029,7 hPa 0,0 l/m 0,0 km/h (0 Bft)
01.01.2009 17:46 16,4 C -1,6 C 37 % 85 % 1029,7 hPa 0,0 l/m 0,0 km/h (0 Bft)
01.01.2009 17:48 16,4 C -1,6 C 37 % 85 % 1029,7 hPa 0,0 l/m 0,0 km/h (0 Bft)
01.01.2009 17:50 16,4 C -1,6 C 37 % 85 % 1029,7 hPa 0,0 l/m 0,0 km/h (0 Bft)
01.01.2009 17:52 16,3 C -1,6 C 37 % 85 % 1029,7 hPa 0,0 l/m 0,0 km/h (0 Bft)
01.01.2009 17:54 16,4 C -1,6 C 37 % 85 % 1029,7 hPa 0,0 l/m 0,0 km/h (0 Bft)
01.01.2009 17:56 16,3 C -1,6 C 37 % 85 % 1029,7 hPa 0,0 l/m 0,0 km/h (0 Bft)
01.01.2009 17:58 16,4 C -1,6 C 37 % 85 % 1029,7 hPa 0,0 l/m 0,0 km/h (0 Bft)
01.01.2009 18:00 16,4 C -1,6 C 37 % 85 % 1029,7 hPa 0,0 l/m 0,0 km/h (0 Bft)
01.01.2009 18:02 16,3 C -1,6 C 37 % 85 % 1029,7 hPa 0,0 l/m 0,0 km/h (0 Bft)
01.01.2009 18:04 16,4 C -1,6 C 37 % 85 % 1029,7 hPa 0,0 l/m 0,0 km/h (0 Bft)
01.01.2009 18:06 16,4 C -1,6 C 37 % 85 % 1029,7 hPa 0,0 l/m 0,0 km/h (0 Bft)
01.01.2009 18:08 16,4 C -1,6 C 37 % 85 % 1029,7 hPa 0,0 l/m 0,0 km/h (0 Bft)
01.01.2009 18:10 16,4 C -1,6 C 37 % 85 % 1029,7 hPa 0,0 l/m 0,0 km/h (0 Bft)
01.01.2009 18:12 16,4 C -1,6 C 37 % 85 % 1029,7 hPa 0,0 l/m 0,0 km/h (0 Bft)
01.01.2009 18:14 16,4 C -1,6 C 37 % 85 % 1029,7 hPa 0,0 l/m 0,0 km/h (0 Bft)
01.01.2009 18:16 16,4 C -1,6 C 37 % 85 % 1029,7 hPa 0,0 l/m 0,0 km/h (0 Bft)
01.01.2009 18:18 16,4 C -1,6 C 37 % 85 % 1029,7 hPa 0,0 l/m 0,0 km/h (0 Bft)
01.01.2009 18:20 16,4 C -1,6 C 37 % 85 % 1029,7 hPa 0,0 l/m 0,0 km/h (0 Bft)
01.01.2009 18:22 16,4 C -1,6 C 37 % 85 % 1029,7 hPa 0,0 l/m 0,0 km/h (0 Bft)
01.01.2009 18:24 16,4 C -1,6 C 37 % 85 % 1029,7 hPa 0,0 l/m 0,0 km/h (0 Bft)
01.01.2009 18:26 16,5 C -1,6 C 37 % 85 % 1029,7 hPa 0,0 l/m 0,0 km/h (0 Bft)
01.01.2009 18:28 16,5 C -1,6 C 37 % 85 % 1029,7 hPa 0,0 l/m 0,0 km/h (0 Bft)
01.01.2009 18:30 16,5 C -1,6 C 37 % 85 % 1029,7 hPa 0,0 l/m 0,0 km/h (0 Bft)
01.01.2009 18:32 16,5 C -1,6 C 37 % 85 % 1029,7 hPa 0,0 l/m 0,0 km/h (0 Bft)
01.01.2009 18:34 16,4 C -1,6 C 37 % 85 % 1029,7 hPa 0,0 l/m 0,0 km/h (0 Bft)
01.01.2009 18:36 16,4 C -1,6 C 37 % 85 % 1029,7 hPa 0,0 l/m 0,0 km/h (0 Bft)
01.01.2009 18:38 16,5 C -1,6 C 37 % 85 % 1029,7 hPa 0,0 l/m 0,0 km/h (0 Bft)
01.01.2009 18:40 16,5 C -1,6 C 37 % 85 % 1029,7 hPa 0,0 l/m 0,0 km/h (0 Bft)
01.01.2009 18:42 16,5 C -1,6 C 37 % 85 % 1029,7 hPa 0,0 l/m 0,0 km/h (0 Bft)
01.01.2009 18:44 16,6 C -1,6 C 37 % 85 % 1029,7 hPa 0,0 l/m 0,0 km/h (0 Bft)
01.01.2009 18:46 16,6 C -1,6 C 37 % 85 % 1029,7 hPa 0,0 l/m 0,0 km/h (0 Bft)
01.01.2009 18:48 16,6 C -1,6 C 37 % 85 % 1029,7 hPa 0,0 l/m 0,0 km/h (0 Bft)
01.01.2009 18:50 16,6 C -1,6 C 37 % 85 % 1029,7 hPa 0,0 l/m 0,0 km/h (0 Bft)
01.01.2009 18:52 16,6 C -1,6 C 37 % 85 % 1029,7 hPa 0,0 l/m 0,0 km/h (0 Bft)
01.01.2009 18:54 16,6 C -1,6 C 37 % 85 % 1029,7 hPa 0,0 l/m 0,0 km/h (0 Bft)
01.01.2009 18:56 16,6 C -1,6 C 37 % 85 % 1029,7 hPa 0,0 l/m 0,0 km/h (0 Bft)
01.01.2009 18:58 16,6 C -1,6 C 37 % 85 % 1029,7 hPa 0,0 l/m 0,0 km/h (0 Bft)
01.01.2009 19:00 16,6 C -1,6 C 37 % 85 % 1029,7 hPa 0,0 l/m 0,0 km/h (0 Bft)
01.01.2009 19:02 16,7 C -1,6 C 37 % 85 % 1029,7 hPa 0,0 l/m 0,0 km/h (0 Bft)
01.01.2009 19:04 16,7 C -1,6 C 37 % 85 % 1029,7 hPa 0,0 l/m 0,0 km/h (0 Bft)
01.01.2009 19:06 16,6 C -1,6 C 37 % 85 % 1029,7 hPa 0,0 l/m 0,0 km/h (0 Bft)
01.01.2009 19:08 16,7 C -1,6 C 37 % 85 % 1029,7 hPa 0,0 l/m 0,0 km/h (0 Bft)
01.01.2009 19:10 16,7 C -1,6 C 37 % 85 % 1029,7 hPa 0,0 l/m 0,0 km/h (0 Bft)
01.01.2009 19:12 16,7 C -1,6 C 37 % 85 % 1029,7 hPa 0,0 l/m 0,0 km/h (0 Bft)
01.01.2009 19:14 16,7 C -1,6 C 37 % 85 % 1029,7 hPa 0,0 l/m 0,0 km/h (0 Bft)
01.01.2009 19:16 16,7 C -1,6 C 37 % 85 % 1029,7 hPa 0,0 l/m 0,0 km/h (0 Bft)
01.01.2009 19:18 16,7 C -1,6 C 37 % 85 % 1029,7 hPa 0,0 l/m 0,0 km/h (0 Bft)
01.01.2009 19:20 16,7 C -1,6 C 37 % 85 % 1029,7 hPa 0,0 l/m 0,0 km/h (0 Bft)
01.01.2009 19:22 16,7 C -1,6 C 37 % 85 % 1029,7 hPa 0,0 l/m 0,0 km/h (0 Bft)
01.01.2009 19:24 16,7 C -1,6 C 37 % 85 % 1029,7 hPa 0,0 l/m 0,0 km/h (0 Bft)
01.01.2009 19:26 16,7 C -1,6 C 37 % 85 % 1029,7 hPa 0,0 l/m 0,0 km/h (0 Bft)
01.01.2009 19:28 16,7 C -1,6 C 37 % 85 % 1029,7 hPa 0,0 l/m 0,0 km/h (0 Bft)
01.01.2009 19:30 16,7 C -1,6 C 37 % 85 % 1029,7 hPa 0,0 l/m 0,0 km/h (0 Bft)
01.01.2009 19:32 16,8 C -1,6 C 37 % 85 % 1029,7 hPa 0,0 l/m 0,0 km/h (0 Bft)
01.01.2009 19:34 16,7 C -1,6 C 37 % 85 % 1029,7 hPa 0,0 l/m 0,0 km/h (0 Bft)
01.01.2009 19:36 16,7 C -1,6 C 37 % 85 % 1029,7 hPa 0,0 l/m 0,0 km/h (0 Bft)
01.01.2009 19:38 16,8 C -1,6 C 37 % 85 % 1029,7 hPa 0,0 l/m 0,0 km/h (0 Bft)
01.01.2009 19:40 16,8 C -1,6 C 37 % 85 % 1029,7 hPa 0,0 l/m 0,0 km/h (0 Bft)
01.01.2009 19:42 16,8 C -1,6 C 37 % 85 % 1029,7 hPa 0,0 l/m 0,0 km/h (0 Bft)
01.01.2009 19:44 16,8 C -1,6 C 37 % 85 % 1029,7 hPa 0,0 l/m 0,0 km/h (0 Bft)
01.01.2009 19:46 16,8 C -1,6 C 37 % 85 % 1029,7 hPa 0,0 l/m 0,0 km/h (0 Bft)
01.01.2009 19:48 16,8 C -1,6 C 37 % 85 % 1029,7 hPa 0,0 l/m 0,0 km/h (0 Bft)
01.01.2009 19:50 16,8 C -1,6 C 37 % 85 % 1029,7 hPa 0,0 l/m 0,0 km/h (0 Bft)
01.01.2009 19:52 16,8 C -1,6 C 37 % 85 % 1029,7 hPa 0,0 l/m 0,0 km/h (0 Bft)
01.01.2009 19:54 16,8 C -1,6 C 37 % 85 % 1029,7 hPa 0,0 l/m 0,0 km/h (0 Bft)
01.01.2009 19:56 16,8 C -1,6 C 37 % 85 % 1029,7 hPa 0,0 l/m 0,0 km/h (0 Bft)
01.01.2009 19:58 16,8 C -1,5 C 37 % 85 % 1029,7 hPa 0,0 l/m 0,0 km/h (0 Bft)
01.01.2009 20:00 16,8 C -1,5 C 37 % 85 % 1029,7 hPa 0,0 l/m 0,0 km/h (0 Bft)
01.01.2009 20:02 16,8 C -1,6 C 37 % 85 % 1029,7 hPa 0,0 l/m 0,0 km/h (0 Bft)
01.01.2009 20:04 16,8 C -1,6 C 37 % 85 % 1029,7 hPa 0,0 l/m 0,0 km/h (0 Bft)
01.01.2009 20:06 16,8 C -1,6 C 37 % 85 % 1029,7 hPa 0,0 l/m 0,0 km/h (0 Bft)
01.01.2009 20:08 16,8 C -1,6 C 37 % 85 % 1029,7 hPa 0,0 l/m 0,0 km/h (0 Bft)
01.01.2009 20:10 16,8 C -1,5 C 37 % 85 % 1029,7 hPa 0,0 l/m 0,0 km/h (0 Bft)
01.01.2009 20:12 16,8 C -1,5 C 37 % 85 % 1029,7 hPa 0,0 l/m 0,0 km/h (0 Bft)
01.01.2009 20:14 16,8 C -1,5 C 37 % 85 % 1029,7 hPa 0,0 l/m 0,0 km/h (0 Bft)
01.01.2009 20:16 16,8 C -1,5 C 37 % 85 % 1029,7 hPa 0,0 l/m 0,0 km/h (0 Bft)
01.01.2009 20:18 16,8 C -1,5 C 37 % 85 % 1029,7 hPa 0,0 l/m 0,0 km/h (0 Bft)
01.01.2009 20:20 16,8 C -1,5 C 37 % 85 % 1029,7 hPa 0,0 l/m 0,0 km/h (0 Bft)
01.01.2009 20:22 16,8 C -1,5 C 37 % 85 % 1029,7 hPa 0,0 l/m 0,0 km/h (0 Bft)
01.01.2009 20:24 16,8 C -1,5 C 37 % 85 % 1029,7 hPa 0,0 l/m 0,0 km/h (0 Bft)
01.01.2009 20:26 16,8 C -1,5 C 37 % 85 % 1029,7 hPa 0,0 l/m 0,0 km/h (0 Bft)
01.01.2009 20:28 16,8 C -1,5 C 37 % 85 % 1029,7 hPa 0,0 l/m 0,0 km/h (0 Bft)
01.01.2009 20:30 16,8 C -1,5 C 37 % 85 % 1029,7 hPa 0,0 l/m 0,0 km/h (0 Bft)
01.01.2009 20:32 16,8 C -1,5 C 37 % 85 % 1029,7 hPa 0,0 l/m 0,0 km/h (0 Bft)
01.01.2009 20:34 16,7 C -1,5 C 36 % 85 % 1029,7 hPa 0,0 l/m 0,0 km/h (0 Bft)
01.01.2009 20:36 16,7 C -1,5 C 36 % 85 % 1029,7 hPa 0,0 l/m 0,0 km/h (0 Bft)
01.01.2009 20:38 16,7 C -1,4 C 36 % 85 % 1029,6 hPa 0,0 l/m 0,0 km/h (0 Bft)
01.01.2009 20:40 16,7 C -1,5 C 36 % 85 % 1029,7 hPa 0,0 l/m 0,0 km/h (0 Bft)
01.01.2009 20:42 16,7 C -1,4 C 36 % 85 % 1029,6 hPa 0,0 l/m 0,0 km/h (0 Bft)
01.01.2009 20:44 16,7 C -1,4 C 36 % 85 % 1029,6 hPa 0,0 l/m 0,0 km/h (0 Bft)
01.01.2009 20:46 16,7 C -1,4 C 36 % 85 % 1029,6 hPa 0,0 l/m 0,0 km/h (0 Bft)
01.01.2009 20:48 16,7 C -1,4 C 36 % 85 % 1029,6 hPa 0,0 l/m 0,0 km/h (0 Bft)
01.01.2009 20:50 16,6 C -1,4 C 36 % 85 % 1029,6 hPa 0,0 l/m 0,0 km/h (0 Bft)
01.01.2009 20:52 16,6 C -1,4 C 36 % 85 % 1029,6 hPa 0,0 l/m 0,0 km/h (0 Bft)
01.01.2009 20:54 16,6 C -1,4 C 36 % 85 % 1029,6 hPa 0,0 l/m 0,0 km/h (0 Bft)
01.01.2009 20:56 16,6 C -1,4 C 36 % 85 % 1029,6 hPa 0,0 l/m 0,0 km/h (0 Bft)
01.01.2009 20:58 16,6 C -1,4 C 36 % 85 % 1029,6 hPa 0,0 l/m 0,0 km/h (0 Bft)
01.01.2009 21:00 16,6 C -1,4 C 36 % 85 % 1029,6 hPa 0,0 l/m 0,0 km/h (0 Bft)
01.01.2009 21:02 16,5 C -1,4 C 36 % 85 % 1029,6 hPa 0,0 l/m 0,0 km/h (0 Bft)
01.01.2009 21:04 16,5 C -1,4 C 36 % 85 % 1029,6 hPa 0,0 l/m 0,0 km/h (0 Bft)
01.01.2009 21:06 16,5 C -1,4 C 36 % 85 % 1029,6 hPa 0,0 l/m 0,0 km/h (0 Bft)
01.01.2009 21:08 16,5 C -1,4 C 36 % 85 % 1029,6 hPa 0,0 l/m 0,0 km/h (0 Bft)
01.01.2009 21:10 16,5 C -1,4 C 36 % 85 % 1029,6 hPa 0,0 l/m 0,0 km/h (0 Bft)
01.01.2009 21:12 16,4 C -1,4 C 36 % 85 % 1029,6 hPa 0,0 l/m 0,0 km/h (0 Bft)
01.01.2009 21:14 16,4 C -1,4 C 36 % 85 % 1029,6 hPa 0,0 l/m 0,0 km/h (0 Bft)
01.01.2009 21:16 16,4 C -1,4 C 36 % 85 % 1029,6 hPa 0,0 l/m 0,0 km/h (0 Bft)
01.01.2009 21:18 16,4 C -1,4 C 36 % 85 % 1029,6 hPa 0,0 l/m 0,0 km/h (0 Bft)
01.01.2009 21:20 16,4 C -1,4 C 36 % 85 % 1029,6 hPa 0,0 l/m 0,0 km/h (0 Bft)
01.01.2009 21:22 16,4 C -1,3 C 36 % 85 % 1029,6 hPa 0,0 l/m 0,0 km/h (0 Bft)
01.01.2009 21:24 16,4 C -1,4 C 36 % 85 % 1029,6 hPa 0,0 l/m 0,0 km/h (0 Bft)
01.01.2009 21:26 16,4 C -1,3 C 36 % 85 % 1029,6 hPa 0,0 l/m 0,0 km/h (0 Bft)
01.01.2009 21:28 16,4 C -1,3 C 36 % 85 % 1029,6 hPa 0,0 l/m 0,0 km/h (0 Bft)
01.01.2009 21:30 16,4 C -1,3 C 36 % 85 % 1029,6 hPa 0,0 l/m 0,0 km/h (0 Bft)
01.01.2009 21:32 16,4 C -1,3 C 36 % 85 % 1029,6 hPa 0,0 l/m 0,0 km/h (0 Bft)
01.01.2009 21:34 16,4 C -1,3 C 36 % 85 % 1028,6 hPa 0,0 l/m 0,0 km/h (0 Bft)
01.01.2009 21:36 16,3 C -1,3 C 36 % 85 % 1028,6 hPa 0,0 l/m 0,0 km/h (0 Bft)
01.01.2009 21:38 16,4 C -1,3 C 36 % 85 % 1028,6 hPa 0,0 l/m 0,0 km/h (0 Bft)
01.01.2009 21:40 16,4 C -1,2 C 36 % 85 % 1028,6 hPa 0,0 l/m 0,0 km/h (0 Bft)
01.01.2009 21:42 16,3 C -1,3 C 36 % 85 % 1028,6 hPa 0,0 l/m 0,0 km/h (0 Bft)
01.01.2009 21:44 16,4 C -1,2 C 36 % 84 % 1028,6 hPa 0,0 l/m 0,0 km/h (0 Bft)
01.01.2009 21:46 16,4 C -1,2 C 36 % 85 % 1028,6 hPa 0,0 l/m 0,0 km/h (0 Bft)
01.01.2009 21:48 16,4 C -1,2 C 36 % 84 % 1028,6 hPa 0,0 l/m 0,0 km/h (0 Bft)
01.01.2009 21:50 16,4 C -1,2 C 36 % 84 % 1028,6 hPa 0,0 l/m 0,0 km/h (0 Bft)
01.01.2009 21:52 16,4 C -1,2 C 36 % 84 % 1028,6 hPa 0,0 l/m 0,0 km/h (0 Bft)
01.01.2009 21:54 16,4 C -1,2 C 37 % 84 % 1028,6 hPa 0,0 l/m 0,0 km/h (0 Bft)
01.01.2009 21:56 16,4 C -1,2 C 37 % 84 % 1028,6 hPa 0,0 l/m 0,0 km/h (0 Bft)
01.01.2009 21:58 16,4 C -1,2 C 36 % 84 % 1028,6 hPa 0,0 l/m 0,0 km/h (0 Bft)
01.01.2009 22:00 16,5 C -1,2 C 37 % 84 % 1028,6 hPa 0,0 l/m 0,0 km/h (0 Bft)
01.01.2009 22:02 16,5 C -1,2 C 37 % 84 % 1028,6 hPa 0,0 l/m 0,0 km/h (0 Bft)
01.01.2009 22:04 16,5 C -1,2 C 36 % 84 % 1028,6 hPa 0,0 l/m 0,0 km/h (0 Bft)
01.01.2009 22:06 16,5 C -1,2 C 37 % 84 % 1028,6 hPa 0,0 l/m 0,0 km/h (0 Bft)
01.01.2009 22:08 16,5 C -1,2 C 37 % 84 % 1028,6 hPa 0,0 l/m 0,0 km/h (0 Bft)
01.01.2009 22:10 16,5 C -1,2 C 37 % 84 % 1028,6 hPa 0,0 l/m 0,0 km/h (0 Bft)
01.01.2009 22:12 16,6 C -1,2 C 37 % 84 % 1028,6 hPa 0,0 l/m 0,0 km/h (0 Bft)
01.01.2009 22:14 16,6 C -1,2 C 37 % 84 % 1028,6 hPa 0,0 l/m 0,0 km/h (0 Bft)
01.01.2009 22:16 16,6 C -1,2 C 37 % 84 % 1028,6 hPa 0,0 l/m 0,0 km/h (0 Bft)
01.01.2009 22:18 16,6 C -1,2 C 37 % 84 % 1028,6 hPa 0,0 l/m 0,0 km/h (0 Bft)
01.01.2009 22:20 16,6 C -1,2 C 37 % 84 % 1028,6 hPa 0,0 l/m 0,0 km/h (0 Bft)
01.01.2009 22:22 16,6 C -1,1 C 37 % 84 % 1028,6 hPa 0,0 l/m 0,0 km/h (0 Bft)
01.01.2009 22:24 16,7 C -1,1 C 37 % 84 % 1028,6 hPa 0,0 l/m 0,0 km/h (0 Bft)
01.01.2009 22:26 16,7 C -1,1 C 37 % 84 % 1028,6 hPa 0,0 l/m 0,0 km/h (0 Bft)
01.01.2009 22:28 16,7 C -1,1 C 37 % 84 % 1028,6 hPa 0,0 l/m 0,0 km/h (0 Bft)
01.01.2009 22:30 16,7 C -1,1 C 37 % 84 % 1028,6 hPa 0,0 l/m 0,0 km/h (0 Bft)
01.01.2009 22:32 16,7 C -1,1 C 37 % 84 % 1028,6 hPa 0,0 l/m 0,0 km/h (0 Bft)
01.01.2009 22:34 16,7 C -1,1 C 37 % 84 % 1028,6 hPa 0,0 l/m 0,0 km/h (0 Bft)
01.01.2009 22:36 16,7 C -1,1 C 37 % 84 % 1028,6 hPa 0,0 l/m 0,0 km/h (0 Bft)
01.01.2009 22:38 16,7 C -1,1 C 37 % 84 % 1028,6 hPa 0,0 l/m 0,0 km/h (0 Bft)
01.01.2009 22:40 16,7 C -1,1 C 37 % 84 % 1028,6 hPa 0,0 l/m 0,0 km/h (0 Bft)
01.01.2009 22:42 16,7 C -1,1 C 37 % 84 % 1028,6 hPa 0,0 l/m 0,0 km/h (0 Bft)
01.01.2009 22:44 16,8 C -1,1 C 37 % 84 % 1028,6 hPa 0,0 l/m 0,0 km/h (0 Bft)
01.01.2009 22:46 16,8 C -1,1 C 37 % 84 % 1028,6 hPa 0,0 l/m 0,0 km/h (0 Bft)
01.01.2009 22:48 16,8 C -1,1 C 37 % 84 % 1028,6 hPa 0,0 l/m 0,0 km/h (0 Bft)
01.01.2009 22:50 16,8 C -1,1 C 37 % 84 % 1028,6 hPa 0,0 l/m 0,0 km/h (0 Bft)
01.01.2009 22:52 16,8 C -1,1 C 37 % 84 % 1028,6 hPa 0,0 l/m 0,0 km/h (0 Bft)
01.01.2009 22:54 16,8 C -1,1 C 37 % 84 % 1028,6 hPa 0,0 l/m 0,0 km/h (0 Bft)
01.01.2009 22:56 16,8 C -1,1 C 37 % 84 % 1028,6 hPa 0,0 l/m 0,0 km/h (0 Bft)
01.01.2009 22:58 16,8 C -1,1 C 37 % 84 % 1028,6 hPa 0,0 l/m 0,0 km/h (0 Bft)
01.01.2009 23:00 16,8 C -1,1 C 37 % 84 % 1028,6 hPa 0,0 l/m 0,0 km/h (0 Bft)
01.01.2009 23:02 16,8 C -1,1 C 37 % 84 % 1028,6 hPa 0,0 l/m 0,0 km/h (0 Bft)
01.01.2009 23:04 16,8 C -1,1 C 37 % 84 % 1028,6 hPa 0,0 l/m 0,0 km/h (0 Bft)
01.01.2009 23:06 16,8 C -1,1 C 37 % 84 % 1028,6 hPa 0,0 l/m 0,0 km/h (0 Bft)
01.01.2009 23:08 16,8 C -1,1 C 37 % 84 % 1028,6 hPa 0,0 l/m 0,0 km/h (0 Bft)
01.01.2009 23:10 16,8 C -1,1 C 37 % 84 % 1028,6 hPa 0,0 l/m 0,0 km/h (0 Bft)
01.01.2009 23:12 16,8 C -1,1 C 37 % 84 % 1028,6 hPa 0,0 l/m 0,0 km/h (0 Bft)
01.01.2009 23:14 16,8 C -1,1 C 37 % 84 % 1028,6 hPa 0,0 l/m 0,0 km/h (0 Bft)
01.01.2009 23:16 16,8 C -1,1 C 37 % 84 % 1028,6 hPa 0,0 l/m 0,0 km/h (0 Bft)
01.01.2009 23:18 16,8 C -1,1 C 36 % 84 % 1028,6 hPa 0,0 l/m 0,0 km/h (0 Bft)
01.01.2009 23:20 16,8 C -1,1 C 36 % 84 % 1028,6 hPa 0,0 l/m 0,0 km/h (0 Bft)
01.01.2009 23:22 16,8 C -1,1 C 36 % 84 % 1028,6 hPa 0,0 l/m 0,0 km/h (0 Bft)
01.01.2009 23:24 16,8 C -1,1 C 36 % 84 % 1028,6 hPa 0,0 l/m 0,0 km/h (0 Bft)
01.01.2009 23:26 16,8 C -1,1 C 36 % 84 % 1028,6 hPa 0,0 l/m 0,0 km/h (0 Bft)
01.01.2009 23:28 16,8 C -1,1 C 36 % 84 % 1028,6 hPa 0,0 l/m 0,0 km/h (0 Bft)
01.01.2009 23:30 16,8 C -1,1 C 36 % 84 % 1028,6 hPa 0,0 l/m 0,0 km/h (0 Bft)
01.01.2009 23:32 16,7 C -1,1 C 36 % 84 % 1028,6 hPa 0,0 l/m 0,0 km/h (0 Bft)
01.01.2009 23:34 16,7 C -1,1 C 36 % 84 % 1028,6 hPa 0,0 l/m 0,0 km/h (0 Bft)
01.01.2009 23:36 16,6 C -1,1 C 36 % 84 % 1028,6 hPa 0,0 l/m 0,0 km/h (0 Bft)
01.01.2009 23:38 16,6 C -1,1 C 36 % 84 % 1028,6 hPa 0,0 l/m 0,0 km/h (0 Bft)
01.01.2009 23:40 16,6 C -1,1 C 36 % 84 % 1028,6 hPa 0,0 l/m 0,0 km/h (0 Bft)
01.01.2009 23:42 16,6 C -1,1 C 36 % 84 % 1028,6 hPa 0,0 l/m 0,0 km/h (0 Bft)
01.01.2009 23:44 16,5 C -1,1 C 36 % 84 % 1028,6 hPa 0,0 l/m 0,0 km/h (0 Bft)
01.01.2009 23:46 16,5 C -1,1 C 36 % 84 % 1028,6 hPa 0,0 l/m 0,0 km/h (0 Bft)
01.01.2009 23:48 16,5 C -1,1 C 36 % 84 % 1028,6 hPa 0,0 l/m 0,0 km/h (0 Bft)
01.01.2009 23:50 16,5 C -1,1 C 36 % 84 % 1028,6 hPa 0,0 l/m 0,0 km/h (0 Bft)
01.01.2009 23:52 16,4 C -1,1 C 36 % 84 % 1028,6 hPa 0,0 l/m 0,0 km/h (0 Bft)
01.01.2009 23:54 16,4 C -1,1 C 36 % 84 % 1028,6 hPa 0,0 l/m 0,0 km/h (0 Bft)
01.01.2009 23:56 16,4 C -1,1 C 36 % 84 % 1028,6 hPa 0,0 l/m 0,0 km/h (0 Bft)
01.01.2009 23:58 16,4 C -1,1 C 36 % 84 % 1028,6 hPa 0,0 l/m 0,0 km/h (0 Bft)
_ Min-Zeit 08:04 02:22 00:00 21:44 00:24 - 00:00
Minimum _ 15,0 C -5,6 C 36 % 84 % 1026,7 hPa - 0,0 km/h (0 Bft)
_ Max-Zeit 19:32 22:22 11:18 01:34 09:58 00:00 01:26
Maximum _ 16,8 C -1,1 C 38 % 87 % 1030,7 hPa 0,2 l/m 7,5 km/h
N-NW (2 Bft)
Durchschnitt _ 16,0 C -3,0 C 37 % 86 % 1029,3 hPa #0,2 l/m 0,0 km/h (0 Bft)
© 2012 W. Hausmann